Time,TemperatureF,DewpointF,PressureIn,WindDirection,WindDirectionDegrees,WindSpeedMPH,WindSpeedGustMPH,Humidity,HourlyPrecipIn,Conditions,Clouds,dailyrainin,SoftwareType,DateUTC
2013-10-26 07:19:00,40.5,38.1,30.04,North,0,0.0,0.0,91,0.00,,---,0.00,VWS V14.00,2013-10-26 12:19:00,
2013-10-26 07:20:00,39.5,37.4,30.08,East,86,0.0,0.0,92,0.00,,---,0.00,VWS V14.00,2013-10-26 12:20:00,
2013-10-26 07:24:00,39.6,37.5,30.08,East,86,0.0,0.0,92,0.00,,---,0.00,VWS V14.00,2013-10-26 12:24:00,
2013-10-26 07:25:00,39.6,37.5,30.08,East,86,0.0,0.0,92,0.00,,---,0.00,VWS V14.00,2013-10-26 12:25:00,
2013-10-26 07:26:00,39.6,37.5,30.08,East,86,0.0,0.0,92,0.00,,---,0.00,VWS V14.00,2013-10-26 12:26:00,
2013-10-26 07:29:00,39.6,37.5,30.08,East,86,0.0,0.0,92,0.00,,---,0.00,VWS V14.00,2013-10-26 12:29:00,
2013-10-26 07:30:00,39.6,37.5,30.08,East,86,0.0,0.0,92,0.00,,---,0.00,VWS V14.00,2013-10-26 12:30:00,
2013-10-26 07:32:00,39.6,37.5,30.08,East,86,0.0,0.0,92,0.00,,---,0.00,VWS V14.00,2013-10-26 12:32:00,
2013-10-26 07:35:00,39.9,37.8,30.08,East,86,0.0,0.0,92,0.00,,---,0.00,VWS V14.00,2013-10-26 12:35:00,
2013-10-26 07:37:00,39.9,37.8,30.08,East,86,0.0,0.0,92,0.00,,---,0.00,VWS V14.00,2013-10-26 12:37:00,
2013-10-26 07:40:00,39.8,37.7,30.08,East,86,0.0,0.0,92,0.00,,---,0.00,VWS V14.00,2013-10-26 12:40:00,
2013-10-26 07:42:00,39.8,37.7,30.08,East,86,0.0,0.0,92,0.00,,---,0.00,VWS V14.00,2013-10-26 12:42:00,
2013-10-26 07:45:00,39.9,37.8,30.08,East,86,0.0,0.0,92,0.00,,---,0.00,VWS V14.00,2013-10-26 12:45:00,
2013-10-26 07:46:00,39.8,37.7,30.08,East,86,0.0,0.0,92,0.00,,---,0.00,VWS V14.00,2013-10-26 12:46:00,
2013-10-26 07:47:00,39.5,37.4,30.08,East,86,0.0,0.0,92,0.00,,---,0.00,VWS V14.00,2013-10-26 12:47:00,
2013-10-26 07:50:00,39.3,37.2,30.08,East,86,0.0,0.0,92,0.00,,---,0.00,VWS V14.00,2013-10-26 12:50:00,
2013-10-26 07:51:00,39.3,37.2,30.08,East,86,0.0,0.0,92,0.00,,---,0.00,VWS V14.00,2013-10-26 12:51:00,
2013-10-26 07:52:00,39.2,37.1,30.08,East,86,0.0,0.0,92,0.00,,---,0.00,VWS V14.00,2013-10-26 12:52:00,
2013-10-26 07:55:00,38.9,36.8,30.08,East,86,0.0,0.0,92,0.00,,---,0.00,VWS V14.00,2013-10-26 12:55:00,
2013-10-26 07:56:00,38.9,36.8,30.08,East,86,0.0,0.0,92,0.00,,---,0.00,VWS V14.00,2013-10-26 12:56:00,
2013-10-26 07:58:00,38.9,36.8,30.08,East,86,0.0,0.0,92,0.00,,---,0.00,VWS V14.00,2013-10-26 12:58:00,
2013-10-26 08:00:00,38.9,36.8,30.10,East,86,0.0,0.0,92,0.00,,---,0.00,VWS V14.00,2013-10-26 13:00:00,
2013-10-26 08:01:00,38.9,36.8,30.10,East,86,0.0,0.0,92,0.00,,---,0.00,VWS V14.00,2013-10-26 13:01:00,
2013-10-26 08:03:00,38.9,36.8,30.10,East,86,0.0,0.0,92,0.00,,---,0.00,VWS V14.00,2013-10-26 13:03:00,
2013-10-26 08:05:00,39.1,37.0,30.10,East,86,0.0,0.0,92,0.00,,---,0.00,VWS V14.00,2013-10-26 13:05:00,
2013-10-26 08:06:00,38.9,36.8,30.10,East,86,0.0,0.0,92,0.00,,---,0.00,VWS V14.00,2013-10-26 13:06:00,
2013-10-26 08:08:00,38.9,36.8,30.10,East,86,0.0,0.0,92,0.00,,---,0.00,VWS V14.00,2013-10-26 13:08:00,
2013-10-26 08:10:00,39.2,37.1,30.10,East,86,0.0,0.0,92,0.00,,---,0.00,VWS V14.00,2013-10-26 13:10:00,
2013-10-26 08:12:00,39.3,37.5,30.10,East,86,0.0,0.0,93,0.00,,---,0.00,VWS V14.00,2013-10-26 13:12:00,
2013-10-26 08:13:00,39.5,37.7,30.10,East,86,0.0,0.0,93,0.00,,---,0.00,VWS V14.00,2013-10-26 13:13:00,
2013-10-26 08:15:00,39.3,37.5,30.12,East,86,0.0,0.0,93,0.00,,---,0.00,VWS V14.00,2013-10-26 13:15:00,
2013-10-26 08:16:00,39.3,37.5,30.12,East,86,0.0,0.0,93,0.00,,---,0.00,VWS V14.00,2013-10-26 13:16:00,
2013-10-26 08:17:00,39.3,37.5,30.12,East,86,0.0,0.0,93,0.00,,---,0.00,VWS V14.00,2013-10-26 13:17:00,
2013-10-26 08:18:00,39.3,37.5,30.12,East,86,0.0,0.0,93,0.00,,---,0.00,VWS V14.00,2013-10-26 13:18:00,
2013-10-26 08:20:00,39.3,37.5,30.12,East,86,0.0,0.0,93,0.00,,---,0.00,VWS V14.00,2013-10-26 13:20:00,
2013-10-26 08:21:00,39.3,37.5,30.12,East,86,0.0,0.0,93,0.00,,---,0.00,VWS V14.00,2013-10-26 13:21:00,
2013-10-26 08:22:00,39.3,37.5,30.12,East,86,0.0,0.0,93,0.00,,---,0.00,VWS V14.00,2013-10-26 13:22:00,
2013-10-26 08:23:00,39.3,37.5,30.12,NE,51,0.0,0.0,93,0.00,,---,0.00,VWS V14.00,2013-10-26 13:23:00,
2013-10-26 08:25:00,39.5,37.7,30.12,WSW,247,0.0,0.0,93,0.00,,---,0.00,VWS V14.00,2013-10-26 13:25:00,
2013-10-26 08:26:00,39.6,37.8,30.12,WSW,247,0.0,0.0,93,0.00,,---,0.00,VWS V14.00,2013-10-26 13:26:00,
2013-10-26 08:27:00,39.8,38.0,30.12,WSW,247,0.0,0.0,93,0.00,,---,0.00,VWS V14.00,2013-10-26 13:27:00,
2013-10-26 08:28:00,39.8,38.0,30.12,WSW,247,0.0,0.0,93,0.00,,---,0.00,VWS V14.00,2013-10-26 13:28:00,
2013-10-26 08:30:00,40.1,38.2,30.12,WSW,247,0.0,0.0,93,0.00,,---,0.00,VWS V14.00,2013-10-26 13:30:00,
2013-10-26 08:31:00,40.2,38.3,30.12,WSW,247,0.0,0.0,93,0.00,,---,0.00,VWS V14.00,2013-10-26 13:31:00,
2013-10-26 08:33:00,40.2,38.3,30.12,WSW,247,0.0,0.0,93,0.00,,---,0.00,VWS V14.00,2013-10-26 13:33:00,
2013-10-26 08:34:00,40.3,38.4,30.12,WSW,247,0.0,0.0,93,0.00,,---,0.00,VWS V14.00,2013-10-26 13:34:00,
2013-10-26 08:35:00,40.9,39.0,30.12,WSW,247,0.0,0.0,93,0.00,,---,0.00,VWS V14.00,2013-10-26 13:35:00,
2013-10-26 08:36:00,41.1,39.2,30.12,WSW,247,0.0,0.0,93,0.00,,---,0.00,VWS V14.00,2013-10-26 13:36:00,
2013-10-26 08:38:00,41.3,39.4,30.12,WSW,247,0.0,0.0,93,0.00,,---,0.00,VWS V14.00,2013-10-26 13:38:00,
2013-10-26 08:39:00,41.5,39.6,30.12,WSW,247,0.0,0.0,93,0.00,,---,0.00,VWS V14.00,2013-10-26 13:39:00,
2013-10-26 08:40:00,41.9,40.3,30.12,WSW,247,0.0,0.0,94,0.00,,---,0.00,VWS V14.00,2013-10-26 13:40:00,
2013-10-26 08:41:00,41.9,40.3,30.12,WSW,247,0.0,0.0,94,0.00,,---,0.00,VWS V14.00,2013-10-26 13:41:00,
2013-10-26 08:42:00,42.1,40.5,30.12,WSW,247,0.0,0.0,94,0.00,,---,0.00,VWS V14.00,2013-10-26 13:42:00,
2013-10-26 08:43:00,42.3,40.7,30.12,WSW,247,0.0,0.0,94,0.00,,---,0.00,VWS V14.00,2013-10-26 13:43:00,
2013-10-26 08:44:00,42.6,41.0,30.11,WSW,247,0.0,0.0,94,0.00,,---,0.00,VWS V14.00,2013-10-26 13:44:00,
2013-10-26 08:46:00,42.9,41.3,30.11,WSW,247,0.0,0.0,94,0.00,,---,0.00,VWS V14.00,2013-10-26 13:46:00,
2013-10-26 08:47:00,43.1,41.5,30.11,WSW,247,0.0,0.0,94,0.00,,---,0.00,VWS V14.00,2013-10-26 13:47:00,
2013-10-26 08:48:00,43.6,42.0,30.11,WSW,247,0.0,0.0,94,0.00,,---,0.00,VWS V14.00,2013-10-26 13:48:00,
2013-10-26 08:50:00,44.1,42.5,30.11,WSW,247,0.0,0.0,94,0.00,,---,0.00,VWS V14.00,2013-10-26 13:50:00,
2013-10-26 08:51:00,44.2,42.6,30.11,WSW,247,0.0,0.0,94,0.00,,---,0.00,VWS V14.00,2013-10-26 13:51:00,
2013-10-26 08:52:00,44.5,42.9,30.11,WSW,247,0.0,0.0,94,0.00,,---,0.00,VWS V14.00,2013-10-26 13:52:00,
2013-10-26 08:53:00,44.6,43.0,30.11,WSW,247,0.0,0.0,94,0.00,,---,0.00,VWS V14.00,2013-10-26 13:53:00,
2013-10-26 08:55:00,45.2,43.6,30.11,North,354,0.0,0.0,94,0.00,,---,0.00,VWS V14.00,2013-10-26 13:55:00,
2013-10-26 08:56:00,45.4,43.8,30.11,North,354,0.0,0.0,94,0.00,,---,0.00,VWS V14.00,2013-10-26 13:56:00,
2013-10-26 08:57:00,45.4,43.8,30.11,North,354,0.0,0.0,94,0.00,,---,0.00,VWS V14.00,2013-10-26 13:57:00,
2013-10-26 08:58:00,45.7,44.1,30.11,North,354,0.0,0.0,94,0.00,,---,0.00,VWS V14.00,2013-10-26 13:58:00,
2013-10-26 09:00:00,46.2,44.8,30.09,North,354,0.0,0.0,95,0.00,,---,0.00,VWS V14.00,2013-10-26 14:00:00,
2013-10-26 09:01:00,46.5,45.2,30.09,North,354,0.0,0.0,95,0.00,,---,0.00,VWS V14.00,2013-10-26 14:01:00,
2013-10-26 09:02:00,46.5,45.2,30.09,North,354,0.0,0.0,95,0.00,,---,0.00,VWS V14.00,2013-10-26 14:02:00,
2013-10-26 09:04:00,46.7,45.3,30.09,North,354,0.0,0.0,95,0.00,,---,0.00,VWS V14.00,2013-10-26 14:04:00,
2013-10-26 09:05:00,46.8,45.5,30.09,North,354,0.0,0.0,95,0.00,,---,0.00,VWS V14.00,2013-10-26 14:05:00,
2013-10-26 09:06:00,47.0,45.7,30.09,North,354,0.0,0.0,95,0.00,,---,0.00,VWS V14.00,2013-10-26 14:06:00,
2013-10-26 09:07:00,47.1,45.7,30.09,North,354,0.0,0.0,95,0.00,,---,0.00,VWS V14.00,2013-10-26 14:07:00,
2013-10-26 09:09:00,47.3,45.9,30.09,North,354,0.0,0.0,95,0.00,,---,0.00,VWS V14.00,2013-10-26 14:09:00,
2013-10-26 09:10:00,47.4,46.0,30.09,North,354,0.0,0.0,95,0.00,,---,0.00,VWS V14.00,2013-10-26 14:10:00,
2013-10-26 09:11:00,47.4,46.0,30.09,North,354,0.0,0.0,95,0.00,,---,0.00,VWS V14.00,2013-10-26 14:11:00,
2013-10-26 09:12:00,47.6,46.2,30.09,North,354,0.0,0.0,95,0.00,,---,0.00,VWS V14.00,2013-10-26 14:12:00,
2013-10-26 09:14:00,47.7,46.3,30.10,North,354,0.0,0.0,95,0.00,,---,0.00,VWS V14.00,2013-10-26 14:14:00,
2013-10-26 09:16:00,48.0,46.6,30.10,North,354,0.0,0.0,95,0.00,,---,0.00,VWS V14.00,2013-10-26 14:16:00,
2013-10-26 09:17:00,48.3,46.9,30.10,North,354,0.0,0.0,95,0.00,,---,0.00,VWS V14.00,2013-10-26 14:17:00,
2013-10-26 09:19:00,48.6,47.2,30.10,North,354,0.0,0.0,95,0.00,,---,0.00,VWS V14.00,2013-10-26 14:19:00,
2013-10-26 09:21:00,48.8,47.4,30.10,North,354,0.0,0.0,95,0.00,,---,0.00,VWS V14.00,2013-10-26 14:21:00,
2013-10-26 09:22:00,48.9,47.5,30.10,North,354,0.0,0.0,95,0.00,,---,0.00,VWS V14.00,2013-10-26 14:22:00,
2013-10-26 09:24:00,49.5,48.1,30.10,North,354,0.0,0.0,95,0.00,,---,0.00,VWS V14.00,2013-10-26 14:24:00,
2013-10-26 09:27:00,50.1,48.7,30.10,North,354,0.0,0.0,95,0.00,,---,0.00,VWS V14.00,2013-10-26 14:27:00,
2013-10-26 09:29:00,50.8,49.4,30.08,North,354,0.0,0.0,95,0.00,,---,0.00,VWS V14.00,2013-10-26 14:29:00,
2013-10-26 09:30:00,50.8,49.4,30.08,North,354,0.0,0.0,95,0.00,,---,0.00,VWS V14.00,2013-10-26 14:30:00,
2013-10-26 09:32:00,51.3,49.9,30.08,North,354,0.0,0.0,95,0.00,,---,0.00,VWS V14.00,2013-10-26 14:32:00,
2013-10-26 09:33:00,51.4,50.0,30.08,North,354,0.0,0.0,95,0.00,,---,0.00,VWS V14.00,2013-10-26 14:33:00,
2013-10-26 09:34:00,51.7,50.3,30.08,North,354,0.0,0.0,95,0.00,,---,0.00,VWS V14.00,2013-10-26 14:34:00,
2013-10-26 09:35:00,51.9,50.5,30.08,North,359,0.0,0.0,95,0.00,,---,0.00,VWS V14.00,2013-10-26 14:35:00,
2013-10-26 09:37:00,52.2,50.8,30.08,ENE,69,0.0,0.0,95,0.00,,---,0.00,VWS V14.00,2013-10-26 14:37:00,
2013-10-26 09:38:00,52.3,50.9,30.08,ENE,69,0.0,0.0,95,0.00,,---,0.00,VWS V14.00,2013-10-26 14:38:00,
2013-10-26 09:39:00,52.3,50.9,30.08,ENE,69,0.0,0.0,95,0.00,,---,0.00,VWS V14.00,2013-10-26 14:39:00,
2013-10-26 09:40:00,52.5,51.1,30.08,ENE,69,0.0,0.0,95,0.00,,---,0.00,VWS V14.00,2013-10-26 14:40:00,
2013-10-26 09:42:00,53.1,51.4,30.08,ENE,69,0.0,0.0,94,0.00,,---,0.00,VWS V14.00,2013-10-26 14:42:00,
2013-10-26 09:44:00,53.6,51.6,30.07,ENE,69,0.0,0.0,93,0.00,,---,0.00,VWS V14.00,2013-10-26 14:44:00,
2013-10-26 09:45:00,54.1,52.1,30.07,ENE,69,0.0,0.0,93,0.00,,---,0.00,VWS V14.00,2013-10-26 14:45:00,
2013-10-26 09:47:00,55.0,52.1,30.07,ENE,69,0.0,0.0,90,0.00,,---,0.00,VWS V14.00,2013-10-26 14:47:00,
2013-10-26 09:49:00,55.3,51.8,30.07,ENE,69,0.0,0.0,88,0.00,,---,0.00,VWS V14.00,2013-10-26 14:49:00,
2013-10-26 09:50:00,55.9,52.1,30.07,ENE,69,0.0,0.0,87,0.00,,---,0.00,VWS V14.00,2013-10-26 14:50:00,
2013-10-26 09:52:00,56.5,51.7,30.07,ENE,69,0.0,0.0,84,0.00,,---,0.00,VWS V14.00,2013-10-26 14:52:00,
2013-10-26 09:53:00,56.5,51.1,30.07,ENE,69,0.0,0.0,82,0.00,,---,0.00,VWS V14.00,2013-10-26 14:53:00,
2013-10-26 09:54:00,56.7,51.3,30.07,ENE,69,0.0,0.0,82,0.00,,---,0.00,VWS V14.00,2013-10-26 14:54:00,
2013-10-26 09:55:00,57.0,51.6,30.07,ENE,69,0.0,0.0,82,0.00,,---,0.00,VWS V14.00,2013-10-26 14:55:00,
2013-10-26 09:56:00,57.3,51.9,30.07,ENE,69,0.0,0.0,82,0.00,,---,0.00,VWS V14.00,2013-10-26 14:56:00,
2013-10-26 09:57:00,57.8,51.0,30.07,ENE,69,0.0,0.0,78,0.00,,---,0.00,VWS V14.00,2013-10-26 14:57:00,
2013-10-26 09:58:00,57.8,50.7,30.07,ENE,69,0.0,0.0,77,0.00,,---,0.00,VWS V14.00,2013-10-26 14:58:00,
2013-10-26 09:59:00,58.0,50.8,30.06,ENE,69,0.0,0.0,77,0.00,,---,0.00,VWS V14.00,2013-10-26 14:59:00,
2013-10-26 10:00:00,58.0,50.1,30.06,ENE,69,0.0,0.0,75,0.00,,---,0.00,VWS V14.00,2013-10-26 15:00:00,
2013-10-26 10:01:00,58.4,50.5,30.06,ENE,69,0.0,0.0,75,0.00,,---,0.00,VWS V14.00,2013-10-26 15:01:00,
2013-10-26 10:02:00,58.9,50.3,30.06,ENE,69,0.0,0.0,73,0.00,,---,0.00,VWS V14.00,2013-10-26 15:02:00,
2013-10-26 10:03:00,58.9,49.5,30.06,ENE,69,0.0,0.0,71,0.00,,---,0.00,VWS V14.00,2013-10-26 15:03:00,
2013-10-26 10:04:00,59.2,50.2,30.06,ENE,69,0.0,0.0,72,0.00,,---,0.00,VWS V14.00,2013-10-26 15:04:00,
2013-10-26 10:05:00,59.3,49.5,30.06,ENE,69,0.0,0.0,70,0.00,,---,0.00,VWS V14.00,2013-10-26 15:05:00,
2013-10-26 10:06:00,59.5,49.7,30.06,ENE,69,0.0,0.0,70,0.00,,---,0.00,VWS V14.00,2013-10-26 15:06:00,
2013-10-26 10:07:00,59.8,50.4,30.06,ENE,69,0.0,0.0,71,0.00,,---,0.00,VWS V14.00,2013-10-26 15:07:00,
2013-10-26 10:08:00,59.8,50.0,30.06,ENE,69,0.0,0.0,70,0.00,,---,0.00,VWS V14.00,2013-10-26 15:08:00,
2013-10-26 10:09:00,59.9,49.3,30.06,ENE,69,0.0,0.0,68,0.00,,---,0.00,VWS V14.00,2013-10-26 15:09:00,
2013-10-26 10:11:00,60.4,49.4,30.06,ENE,69,0.0,0.0,67,0.00,,---,0.00,VWS V14.00,2013-10-26 15:11:00,
2013-10-26 10:12:00,61.0,50.0,30.06,ENE,69,0.0,0.0,67,0.00,,---,0.00,VWS V14.00,2013-10-26 15:12:00,
2013-10-26 10:13:00,61.0,49.2,30.06,ENE,69,0.0,0.0,65,0.00,,---,0.00,VWS V14.00,2013-10-26 15:13:00,
2013-10-26 10:14:00,61.2,49.3,30.04,ENE,69,0.0,0.0,65,0.00,,---,0.00,VWS V14.00,2013-10-26 15:14:00,
2013-10-26 10:16:00,61.5,48.8,30.04,ENE,69,0.0,0.0,63,0.00,,---,0.00,VWS V14.00,2013-10-26 15:16:00,
2013-10-26 10:17:00,61.5,48.8,30.04,ENE,69,0.0,0.0,63,0.00,,---,0.00,VWS V14.00,2013-10-26 15:17:00,
2013-10-26 10:18:00,61.6,48.9,30.04,ENE,69,0.0,0.0,63,0.00,,---,0.00,VWS V14.00,2013-10-26 15:18:00,
2013-10-26 10:19:00,62.0,49.3,30.04,ENE,69,0.0,0.0,63,0.00,,---,0.00,VWS V14.00,2013-10-26 15:19:00,
2013-10-26 10:21:00,62.3,49.6,30.04,ENE,69,0.0,0.0,63,0.00,,---,0.00,VWS V14.00,2013-10-26 15:21:00,
2013-10-26 10:22:00,62.6,49.0,30.04,ENE,69,0.0,0.0,61,0.00,,---,0.00,VWS V14.00,2013-10-26 15:22:00,
2013-10-26 10:23:00,62.7,49.1,30.04,ENE,69,0.0,0.0,61,0.00,,---,0.00,VWS V14.00,2013-10-26 15:23:00,
2013-10-26 10:24:00,62.7,49.1,30.04,ENE,69,0.0,0.0,61,0.00,,---,0.00,VWS V14.00,2013-10-26 15:24:00,
2013-10-26 10:26:00,63.1,49.5,30.04,ENE,69,0.0,0.0,61,0.00,,---,0.00,VWS V14.00,2013-10-26 15:26:00,
2013-10-26 10:27:00,63.2,49.1,30.04,ENE,69,0.0,0.0,60,0.00,,---,0.00,VWS V14.00,2013-10-26 15:27:00,
2013-10-26 10:28:00,63.4,49.3,30.04,ENE,69,0.0,0.0,60,0.00,,---,0.00,VWS V14.00,2013-10-26 15:28:00,
2013-10-26 10:30:00,63.5,49.4,30.03,ENE,69,0.0,0.0,60,0.00,,---,0.00,VWS V14.00,2013-10-26 15:30:00,
2013-10-26 10:31:00,63.5,48.9,30.03,ENE,68,0.0,0.0,59,0.00,,---,0.00,VWS V14.00,2013-10-26 15:31:00,
2013-10-26 10:33:00,63.5,48.9,30.03,ENE,68,0.0,0.0,59,0.00,,---,0.00,VWS V14.00,2013-10-26 15:33:00,
2013-10-26 10:34:00,63.7,49.1,30.03,ENE,68,0.0,0.0,59,0.00,,---,0.00,VWS V14.00,2013-10-26 15:34:00,
2013-10-26 10:35:00,63.9,48.8,30.03,ENE,68,0.0,0.0,58,0.00,,---,0.00,VWS V14.00,2013-10-26 15:35:00,
2013-10-26 10:36:00,64.0,48.5,30.03,ENE,68,0.0,0.0,57,0.00,,---,0.00,VWS V14.00,2013-10-26 15:36:00,
2013-10-26 10:38:00,64.5,49.0,30.03,ENE,68,0.0,0.0,57,0.00,,---,0.00,VWS V14.00,2013-10-26 15:38:00,
2013-10-26 10:39:00,64.5,49.0,30.03,ENE,68,0.0,0.0,57,0.00,,---,0.00,VWS V14.00,2013-10-26 15:39:00,
2013-10-26 10:40:00,64.7,48.7,30.03,ENE,68,0.0,0.0,56,0.00,,---,0.00,VWS V14.00,2013-10-26 15:40:00,
2013-10-26 10:41:00,65.0,49.4,30.03,ENE,68,0.0,0.0,57,0.00,,---,0.00,VWS V14.00,2013-10-26 15:41:00,
2013-10-26 10:43:00,65.6,49.5,30.03,ENE,68,0.0,0.0,56,0.00,,---,0.00,VWS V14.00,2013-10-26 15:43:00,
2013-10-26 10:44:00,66.0,49.9,30.02,ENE,68,0.0,0.0,56,0.00,,---,0.00,VWS V14.00,2013-10-26 15:44:00,
2013-10-26 10:45:00,66.0,49.4,30.02,ENE,68,0.0,0.0,55,0.00,,---,0.00,VWS V14.00,2013-10-26 15:45:00,
2013-10-26 10:46:00,65.8,49.2,30.02,ENE,68,0.0,0.0,55,0.00,,---,0.00,VWS V14.00,2013-10-26 15:46:00,
2013-10-26 10:48:00,66.1,49.5,30.02,North,0,0.0,0.0,55,0.00,,---,0.00,VWS V14.00,2013-10-26 15:48:00,
2013-10-26 10:49:00,66.1,49.0,30.02,North,1,0.0,0.0,54,0.00,,---,0.00,VWS V14.00,2013-10-26 15:49:00,
2013-10-26 10:50:00,66.1,49.0,30.02,North,0,0.0,0.0,54,0.00,,---,0.00,VWS V14.00,2013-10-26 15:50:00,
2013-10-26 10:51:00,66.0,48.9,30.02,North,0,0.0,0.0,54,0.00,,---,0.00,VWS V14.00,2013-10-26 15:51:00,
2013-10-26 10:53:00,65.8,47.7,30.02,North,0,0.0,0.0,52,0.00,,---,0.00,VWS V14.00,2013-10-26 15:53:00,
2013-10-26 10:54:00,65.8,47.7,30.02,North,0,0.0,0.0,52,0.00,,---,0.00,VWS V14.00,2013-10-26 15:54:00,
2013-10-26 10:56:00,65.6,48.0,30.02,North,0,0.0,0.0,53,0.00,,---,0.00,VWS V14.00,2013-10-26 15:56:00,
2013-10-26 10:57:00,65.6,48.5,30.02,WNW,282,0.0,0.0,54,0.00,,---,0.00,VWS V14.00,2013-10-26 15:57:00,
2013-10-26 10:58:00,65.8,48.2,30.02,WNW,282,0.0,0.0,53,0.00,,---,0.00,VWS V14.00,2013-10-26 15:58:00,
2013-10-26 10:59:00,66.0,47.9,30.02,WNW,282,0.0,0.0,52,0.00,,---,0.00,VWS V14.00,2013-10-26 15:59:00,
2013-10-26 11:00:00,66.0,47.9,30.02,WNW,282,0.0,0.0,52,0.00,,---,0.00,VWS V14.00,2013-10-26 16:00:00,
2013-10-26 11:01:00,66.4,47.7,30.02,West,275,0.0,0.0,51,0.00,,---,0.00,VWS V14.00,2013-10-26 16:01:00,
2013-10-26 11:02:00,66.4,47.7,30.02,West,275,0.0,0.0,51,0.00,,---,0.00,VWS V14.00,2013-10-26 16:02:00,
2013-10-26 11:03:00,66.6,47.9,30.02,West,275,0.0,0.0,51,0.00,,---,0.00,VWS V14.00,2013-10-26 16:03:00,
2013-10-26 11:04:00,66.8,47.6,30.02,SSE,157,0.0,0.0,50,0.00,,---,0.00,VWS V14.00,2013-10-26 16:04:00,
2013-10-26 11:05:00,66.8,47.6,30.02,SSE,157,0.0,0.0,50,0.00,,---,0.00,VWS V14.00,2013-10-26 16:05:00,
2013-10-26 11:06:00,66.9,47.7,30.02,SSE,157,0.0,0.0,50,0.00,,---,0.00,VWS V14.00,2013-10-26 16:06:00,
2013-10-26 11:07:00,66.9,47.7,30.02,SSE,157,0.0,0.0,50,0.00,,---,0.00,VWS V14.00,2013-10-26 16:07:00,
2013-10-26 11:08:00,67.1,48.4,30.02,SSE,157,0.0,0.0,51,0.00,,---,0.00,VWS V14.00,2013-10-26 16:08:00,
2013-10-26 11:10:00,67.3,48.6,30.02,SE,138,0.0,0.0,51,0.00,,---,0.00,VWS V14.00,2013-10-26 16:10:00,
2013-10-26 11:12:00,67.3,48.0,30.02,SE,138,0.0,0.0,50,0.00,,---,0.00,VWS V14.00,2013-10-26 16:12:00,
2013-10-26 11:13:00,67.4,47.6,30.02,SE,138,0.0,0.0,49,0.00,,---,0.00,VWS V14.00,2013-10-26 16:13:00,
2013-10-26 11:14:00,67.6,47.2,30.00,SE,138,0.0,0.0,48,0.00,,---,0.00,VWS V14.00,2013-10-26 16:14:00,
2013-10-26 11:15:00,67.6,47.2,30.00,SSW,192,0.0,0.0,48,0.00,,---,0.00,VWS V14.00,2013-10-26 16:15:00,
2013-10-26 11:17:00,67.8,47.4,30.00,SSW,192,0.0,0.0,48,0.00,,---,0.00,VWS V14.00,2013-10-26 16:17:00,
2013-10-26 11:18:00,67.9,47.5,30.00,SSW,192,0.0,0.0,48,0.00,,---,0.00,VWS V14.00,2013-10-26 16:18:00,
2013-10-26 11:19:00,68.1,47.7,30.00,SSW,192,0.0,0.0,48,0.00,,---,0.00,VWS V14.00,2013-10-26 16:19:00,
2013-10-26 11:20:00,68.3,47.9,30.00,SSW,192,0.0,0.0,48,0.00,,---,0.00,VWS V14.00,2013-10-26 16:20:00,
2013-10-26 11:21:00,68.3,47.9,30.00,SSW,192,0.0,0.0,48,0.00,,---,0.00,VWS V14.00,2013-10-26 16:21:00,
2013-10-26 11:22:00,68.6,47.0,30.00,SSW,192,0.0,0.0,46,0.00,,---,0.00,VWS V14.00,2013-10-26 16:22:00,
2013-10-26 11:24:00,68.9,47.9,30.00,SSW,192,0.0,0.0,47,0.00,,---,0.00,VWS V14.00,2013-10-26 16:24:00,
2013-10-26 11:26:00,68.9,47.9,30.00,SSW,192,0.0,0.0,47,0.00,,---,0.00,VWS V14.00,2013-10-26 16:26:00,
2013-10-26 11:27:00,69.3,47.1,30.00,SSW,192,0.0,0.0,45,0.00,,---,0.00,VWS V14.00,2013-10-26 16:27:00,
2013-10-26 11:28:00,69.3,47.1,30.00,SSW,192,0.0,0.0,45,0.00,,---,0.00,VWS V14.00,2013-10-26 16:28:00,
2013-10-26 11:29:00,69.4,47.7,29.99,SSW,192,0.0,0.0,46,0.00,,---,0.00,VWS V14.00,2013-10-26 16:29:00,
2013-10-26 11:31:00,69.8,47.5,29.99,SSW,192,0.0,0.0,45,0.00,,---,0.00,VWS V14.00,2013-10-26 16:31:00,
2013-10-26 11:33:00,70.1,48.4,29.99,SSW,192,0.0,0.0,46,0.00,,---,0.00,VWS V14.00,2013-10-26 16:33:00,
2013-10-26 11:35:00,70.4,48.7,29.99,SSW,192,0.0,0.0,46,0.00,,---,0.00,VWS V14.00,2013-10-26 16:35:00,
2013-10-26 11:36:00,70.6,47.7,29.99,East,99,0.0,0.0,44,0.00,,---,0.00,VWS V14.00,2013-10-26 16:36:00,
2013-10-26 11:38:00,70.4,46.9,29.99,SSE,164,0.0,0.0,43,0.00,,---,0.00,VWS V14.00,2013-10-26 16:38:00,
2013-10-26 11:39:00,70.3,46.8,29.99,SSE,165,0.0,0.0,43,0.00,,---,0.00,VWS V14.00,2013-10-26 16:39:00,
2013-10-26 11:40:00,70.4,46.9,29.99,SSE,165,0.0,0.0,43,0.00,,---,0.00,VWS V14.00,2013-10-26 16:40:00,
2013-10-26 11:41:00,70.8,47.2,29.99,SSE,165,0.0,0.0,43,0.00,,---,0.00,VWS V14.00,2013-10-26 16:41:00,
2013-10-26 11:43:00,70.6,47.0,29.99,SSW,202,0.0,0.0,43,0.00,,---,0.00,VWS V14.00,2013-10-26 16:43:00,
2013-10-26 11:44:00,70.8,47.2,29.99,SSW,202,0.0,0.0,43,0.00,,---,0.00,VWS V14.00,2013-10-26 16:44:00,
2013-10-26 11:45:00,70.9,47.9,29.99,SSW,202,0.0,0.0,44,0.00,,---,0.00,VWS V14.00,2013-10-26 16:45:00,
2013-10-26 11:46:00,71.1,47.5,29.99,SSW,202,0.0,0.0,43,0.00,,---,0.00,VWS V14.00,2013-10-26 16:46:00,
2013-10-26 11:47:00,70.9,47.3,29.99,SSW,202,0.0,0.0,43,0.00,,---,0.00,VWS V14.00,2013-10-26 16:47:00,
2013-10-26 11:48:00,71.1,46.2,29.99,SSW,202,0.0,0.0,41,0.00,,---,0.00,VWS V14.00,2013-10-26 16:48:00,
2013-10-26 11:49:00,71.3,46.4,29.99,SSW,202,0.0,0.0,41,0.00,,---,0.00,VWS V14.00,2013-10-26 16:49:00,
2013-10-26 11:50:00,71.1,46.2,29.99,SSW,209,0.0,0.0,41,0.00,,---,0.00,VWS V14.00,2013-10-26 16:50:00,
2013-10-26 11:52:00,71.3,47.0,29.99,SW,226,0.0,0.0,42,0.00,,---,0.00,VWS V14.00,2013-10-26 16:52:00,
2013-10-26 11:53:00,71.3,46.4,29.99,SW,220,0.0,0.0,41,0.00,,---,0.00,VWS V14.00,2013-10-26 16:53:00,
2013-10-26 11:54:00,71.3,46.4,29.99,SW,220,0.0,0.0,41,0.00,,---,0.00,VWS V14.00,2013-10-26 16:54:00,
2013-10-26 11:55:00,71.6,46.7,29.99,SW,220,0.0,0.0,41,0.00,,---,0.00,VWS V14.00,2013-10-26 16:55:00,
2013-10-26 11:56:00,71.6,46.7,29.99,SW,220,0.0,0.0,41,0.00,,---,0.00,VWS V14.00,2013-10-26 16:56:00,
2013-10-26 11:57:00,71.8,46.2,29.99,SW,220,0.0,0.0,40,0.00,,---,0.00,VWS V14.00,2013-10-26 16:57:00,
2013-10-26 11:58:00,71.8,46.9,29.99,SW,220,0.0,0.0,41,0.00,,---,0.00,VWS V14.00,2013-10-26 16:58:00,
2013-10-26 12:00:00,72.0,45.7,29.97,SW,220,0.0,0.0,39,0.00,,---,0.00,VWS V14.00,2013-10-26 17:00:00,
2013-10-26 12:01:00,71.8,46.2,29.97,SW,220,0.0,0.0,40,0.00,,---,0.00,VWS V14.00,2013-10-26 17:01:00,
2013-10-26 12:02:00,72.0,46.4,29.97,SW,224,0.0,0.0,40,0.00,,---,0.00,VWS V14.00,2013-10-26 17:02:00,
2013-10-26 12:03:00,72.1,46.5,29.97,SW,224,0.0,0.0,40,0.00,,---,0.00,VWS V14.00,2013-10-26 17:03:00,
2013-10-26 12:05:00,71.8,45.5,29.97,SW,222,0.0,0.0,39,0.00,,---,0.00,VWS V14.00,2013-10-26 17:05:00,
2013-10-26 12:06:00,71.8,45.5,29.97,SW,222,0.0,0.0,39,0.00,,---,0.00,VWS V14.00,2013-10-26 17:06:00,
2013-10-26 12:07:00,71.6,46.0,29.97,SW,222,0.0,0.0,40,0.00,,---,0.00,VWS V14.00,2013-10-26 17:07:00,
2013-10-26 12:08:00,71.6,46.0,29.97,West,267,0.0,0.0,40,0.00,,---,0.00,VWS V14.00,2013-10-26 17:08:00,
2013-10-26 12:11:00,71.8,46.2,29.97,West,271,0.0,0.0,40,0.00,,---,0.00,VWS V14.00,2013-10-26 17:11:00,
2013-10-26 12:13:00,71.8,46.2,29.97,West,264,0.0,0.0,40,0.00,,---,0.00,VWS V14.00,2013-10-26 17:13:00,
2013-10-26 12:16:00,71.8,45.5,29.98,SW,223,0.0,0.0,39,0.00,,---,0.00,VWS V14.00,2013-10-26 17:16:00,
2013-10-26 12:18:00,72.0,46.4,29.98,SW,222,0.0,0.0,40,0.00,,---,0.00,VWS V14.00,2013-10-26 17:18:00,
2013-10-26 12:21:00,72.1,46.5,29.98,SW,226,0.0,0.0,40,0.00,,---,0.00,VWS V14.00,2013-10-26 17:21:00,
2013-10-26 12:22:00,72.1,46.5,29.98,SW,224,0.0,0.0,40,0.00,,---,0.00,VWS V14.00,2013-10-26 17:22:00,
2013-10-26 12:23:00,72.1,45.1,29.98,SW,226,0.0,0.0,38,0.00,,---,0.00,VWS V14.00,2013-10-26 17:23:00,
2013-10-26 12:24:00,72.1,45.1,29.98,SW,226,0.0,0.0,38,0.00,,---,0.00,VWS V14.00,2013-10-26 17:24:00,
2013-10-26 12:26:00,72.5,46.8,29.98,SW,226,0.0,0.0,40,0.00,,---,0.00,VWS V14.00,2013-10-26 17:26:00,
2013-10-26 12:27:00,72.5,46.8,29.98,SW,236,0.0,0.0,40,0.00,,---,0.00,VWS V14.00,2013-10-26 17:27:00,
2013-10-26 12:29:00,72.7,46.3,29.98,SSW,205,0.0,0.0,39,0.00,,---,0.00,VWS V14.00,2013-10-26 17:29:00,
2013-10-26 12:32:00,72.8,46.4,29.98,SW,219,0.0,0.0,39,0.00,,---,0.00,VWS V14.00,2013-10-26 17:32:00,
2013-10-26 12:34:00,72.8,45.0,29.98,NW,309,0.0,0.0,37,0.00,,---,0.00,VWS V14.00,2013-10-26 17:34:00,
2013-10-26 12:37:00,72.8,44.3,29.98,WNW,296,0.0,0.0,36,0.00,,---,0.00,VWS V14.00,2013-10-26 17:37:00,
2013-10-26 12:38:00,73.0,45.2,29.98,SSW,212,0.0,0.0,37,0.00,,---,0.00,VWS V14.00,2013-10-26 17:38:00,
2013-10-26 12:39:00,73.0,45.2,29.98,SSW,212,0.0,0.0,37,0.00,,---,0.00,VWS V14.00,2013-10-26 17:39:00,
2013-10-26 12:40:00,73.0,44.5,29.98,SSW,212,0.0,0.0,36,0.00,,---,0.00,VWS V14.00,2013-10-26 17:40:00,
2013-10-26 12:42:00,73.0,44.5,29.98,SSW,210,0.0,0.0,36,0.00,,---,0.00,VWS V14.00,2013-10-26 17:42:00,
2013-10-26 12:43:00,73.0,44.5,29.98,SSW,208,0.0,0.0,36,0.00,,---,0.00,VWS V14.00,2013-10-26 17:43:00,
2013-10-26 12:44:00,73.0,44.5,29.97,SSW,208,0.0,0.0,36,0.00,,---,0.00,VWS V14.00,2013-10-26 17:44:00,
2013-10-26 12:45:00,73.3,44.8,29.97,SSW,205,0.0,0.0,36,0.00,,---,0.00,VWS V14.00,2013-10-26 17:45:00,
2013-10-26 12:48:00,73.2,46.8,29.97,ENE,64,0.0,0.0,39,0.00,,---,0.00,VWS V14.00,2013-10-26 17:48:00,
2013-10-26 12:49:00,73.3,46.9,29.97,ENE,69,0.0,0.0,39,0.00,,---,0.00,VWS V14.00,2013-10-26 17:49:00,
2013-10-26 12:50:00,73.3,46.9,29.97,WSW,237,0.0,0.0,39,0.00,,---,0.00,VWS V14.00,2013-10-26 17:50:00,
2013-10-26 12:51:00,73.5,46.4,29.97,WSW,243,0.0,0.0,38,0.00,,---,0.00,VWS V14.00,2013-10-26 17:51:00,
2013-10-26 12:53:00,73.7,45.8,29.97,SSW,212,0.0,0.0,37,0.00,,---,0.00,VWS V14.00,2013-10-26 17:53:00,
2013-10-26 12:54:00,73.7,45.1,29.97,SSW,213,0.0,0.0,36,0.00,,---,0.00,VWS V14.00,2013-10-26 17:54:00,
2013-10-26 12:55:00,73.9,45.3,29.97,SSW,213,0.0,0.0,36,0.00,,---,0.00,VWS V14.00,2013-10-26 17:55:00,
2013-10-26 12:56:00,73.9,45.3,29.97,East,96,0.0,0.0,36,0.00,,---,0.00,VWS V14.00,2013-10-26 17:56:00,
2013-10-26 12:58:00,74.6,45.9,29.97,SE,143,5.0,8.0,36,0.00,,---,0.00,VWS V14.00,2013-10-26 17:58:00,
2013-10-26 12:59:00,74.6,45.9,29.96,SE,141,0.0,8.0,36,0.00,,---,0.00,VWS V14.00,2013-10-26 17:59:00,
2013-10-26 13:00:00,74.6,45.9,29.96,SSE,168,5.0,10.0,36,0.00,,---,0.00,VWS V14.00,2013-10-26 18:00:00,
2013-10-26 13:01:00,74.6,46.6,29.96,East,93,5.0,10.0,37,0.00,,---,0.00,VWS V14.00,2013-10-26 18:01:00,
2013-10-26 13:03:00,74.0,47.5,29.96,East,90,1.0,10.0,39,0.00,,---,0.00,VWS V14.00,2013-10-26 18:03:00,
2013-10-26 13:04:00,73.9,47.4,29.96,East,89,5.0,10.0,39,0.00,,---,0.00,VWS V14.00,2013-10-26 18:04:00,
2013-10-26 13:05:00,73.9,47.4,29.96,East,89,1.0,10.0,39,0.00,,---,0.00,VWS V14.00,2013-10-26 18:05:00,
2013-10-26 13:06:00,73.3,46.9,29.96,ENE,58,0.0,10.0,39,0.00,,---,0.00,VWS V14.00,2013-10-26 18:06:00,
2013-10-26 13:08:00,73.5,46.4,29.96,East,93,2.0,10.0,38,0.00,,---,0.00,VWS V14.00,2013-10-26 18:08:00,
2013-10-26 13:09:00,73.7,46.5,29.96,ESE,107,2.0,10.0,38,0.00,,---,0.00,VWS V14.00,2013-10-26 18:09:00,
2013-10-26 13:10:00,73.7,47.2,29.96,East,99,1.0,10.0,39,0.00,,---,0.00,VWS V14.00,2013-10-26 18:10:00,
2013-10-26 13:12:00,73.5,47.0,29.96,East,93,2.0,10.0,39,0.00,,---,0.00,VWS V14.00,2013-10-26 18:12:00,
2013-10-26 13:14:00,73.2,46.8,29.97,East,93,2.0,10.0,39,0.00,,---,0.00,VWS V14.00,2013-10-26 18:14:00,
2013-10-26 13:15:00,73.2,46.8,29.97,East,88,3.0,10.0,39,0.00,,---,0.00,VWS V14.00,2013-10-26 18:15:00,
2013-10-26 13:17:00,73.3,46.9,29.97,East,99,5.0,10.0,39,0.00,,---,0.00,VWS V14.00,2013-10-26 18:17:00,
2013-10-26 13:19:00,73.2,46.8,29.97,ENE,75,0.0,10.0,39,0.00,,---,0.00,VWS V14.00,2013-10-26 18:19:00,
2013-10-26 13:20:00,73.2,47.5,29.97,East,86,1.0,10.0,40,0.00,,---,0.00,VWS V14.00,2013-10-26 18:20:00,
2013-10-26 13:21:00,73.2,47.5,29.97,East,86,0.0,10.0,40,0.00,,---,0.00,VWS V14.00,2013-10-26 18:21:00,
2013-10-26 13:22:00,72.8,46.4,29.97,ESE,109,1.0,10.0,39,0.00,,---,0.00,VWS V14.00,2013-10-26 18:22:00,
2013-10-26 13:23:00,73.0,46.6,29.97,ESE,106,0.0,10.0,39,0.00,,---,0.00,VWS V14.00,2013-10-26 18:23:00,
2013-10-26 13:24:00,73.0,46.6,29.97,ESE,104,2.0,10.0,39,0.00,,---,0.00,VWS V14.00,2013-10-26 18:24:00,
2013-10-26 13:25:00,73.2,46.1,29.97,SSE,150,1.0,10.0,38,0.00,,---,0.00,VWS V14.00,2013-10-26 18:25:00,
2013-10-26 13:26:00,73.3,46.2,29.97,ESE,103,0.0,10.0,38,0.00,,---,0.00,VWS V14.00,2013-10-26 18:26:00,
2013-10-26 13:27:00,73.3,46.2,29.97,SE,134,0.0,10.0,38,0.00,,---,0.00,VWS V14.00,2013-10-26 18:27:00,
2013-10-26 13:28:00,73.5,47.0,29.97,ESE,112,0.0,10.0,39,0.00,,---,0.00,VWS V14.00,2013-10-26 18:28:00,
2013-10-26 13:29:00,73.7,47.2,29.96,NE,48,0.0,10.0,39,0.00,,---,0.00,VWS V14.00,2013-10-26 18:29:00,
2013-10-26 13:30:00,73.7,46.5,29.96,SSE,161,0.0,2.0,38,0.00,,---,0.00,VWS V14.00,2013-10-26 18:30:00,
2013-10-26 13:31:00,73.7,45.8,29.96,SSE,161,0.0,2.0,37,0.00,,---,0.00,VWS V14.00,2013-10-26 18:31:00,
2013-10-26 13:32:00,73.5,45.7,29.96,East,83,2.0,2.0,37,0.00,,---,0.00,VWS V14.00,2013-10-26 18:32:00,
2013-10-26 13:34:00,73.2,46.1,29.96,ESE,114,0.0,5.0,38,0.00,,---,0.00,VWS V14.00,2013-10-26 18:34:00,
2013-10-26 13:35:00,72.8,46.4,29.96,ESE,102,2.0,5.0,39,0.00,,---,0.00,VWS V14.00,2013-10-26 18:35:00,
2013-10-26 13:36:00,72.8,47.1,29.96,ESE,103,0.0,5.0,40,0.00,,---,0.00,VWS V14.00,2013-10-26 18:36:00,
2013-10-26 13:38:00,73.2,46.8,29.96,ESE,110,0.0,10.0,39,0.00,,---,0.00,VWS V14.00,2013-10-26 18:38:00,
2013-10-26 13:39:00,73.2,46.8,29.96,ESE,112,2.0,10.0,39,0.00,,---,0.00,VWS V14.00,2013-10-26 18:39:00,
2013-10-26 13:40:00,72.8,46.4,29.96,ESE,117,2.0,10.0,39,0.00,,---,0.00,VWS V14.00,2013-10-26 18:40:00,
2013-10-26 13:42:00,72.3,46.0,29.96,ESE,112,0.0,10.0,39,0.00,,---,0.00,VWS V14.00,2013-10-26 18:42:00,
2013-10-26 13:43:00,72.1,45.8,29.96,East,95,0.0,10.0,39,0.00,,---,0.00,VWS V14.00,2013-10-26 18:43:00,
2013-10-26 13:44:00,72.3,46.7,29.96,ESE,102,2.0,10.0,40,0.00,,---,0.00,VWS V14.00,2013-10-26 18:44:00,
2013-10-26 13:45:00,72.3,46.7,29.96,SSE,151,0.0,10.0,40,0.00,,---,0.00,VWS V14.00,2013-10-26 18:45:00,
2013-10-26 13:46:00,72.5,46.8,29.96,ESE,107,3.0,10.0,40,0.00,,---,0.00,VWS V14.00,2013-10-26 18:46:00,
2013-10-26 13:47:00,72.8,46.4,29.96,ESE,121,0.0,10.0,39,0.00,,---,0.00,VWS V14.00,2013-10-26 18:47:00,
2013-10-26 13:48:00,72.5,46.2,29.96,SE,127,0.0,10.0,39,0.00,,---,0.00,VWS V14.00,2013-10-26 18:48:00,
2013-10-26 13:50:00,72.3,46.7,29.96,East,93,0.0,10.0,40,0.00,,---,0.00,VWS V14.00,2013-10-26 18:50:00,
2013-10-26 13:51:00,72.3,46.7,29.96,East,96,0.0,10.0,40,0.00,,---,0.00,VWS V14.00,2013-10-26 18:51:00,
2013-10-26 13:52:00,72.3,46.7,29.96,ESE,114,0.0,10.0,40,0.00,,---,0.00,VWS V14.00,2013-10-26 18:52:00,
2013-10-26 13:54:00,72.3,46.7,29.96,SE,134,0.0,10.0,40,0.00,,---,0.00,VWS V14.00,2013-10-26 18:54:00,
2013-10-26 13:55:00,72.1,46.5,29.96,SE,136,2.0,10.0,40,0.00,,---,0.00,VWS V14.00,2013-10-26 18:55:00,
2013-10-26 13:56:00,72.3,46.7,29.96,SSE,152,0.0,10.0,40,0.00,,---,0.00,VWS V14.00,2013-10-26 18:56:00,
2013-10-26 13:57:00,72.5,46.2,29.96,SE,126,2.0,10.0,39,0.00,,---,0.00,VWS V14.00,2013-10-26 18:57:00,
2013-10-26 14:00:00,72.8,46.4,29.96,SE,128,0.0,0.0,39,0.00,,---,0.00,VWS V14.00,2013-10-26 19:00:00,
2013-10-26 14:01:00,73.2,46.8,29.96,ESE,102,2.0,2.0,39,0.00,,---,0.00,VWS V14.00,2013-10-26 19:01:00,
2013-10-26 14:02:00,73.0,45.2,29.96,East,82,0.0,2.0,37,0.00,,---,0.00,VWS V14.00,2013-10-26 19:02:00,
2013-10-26 14:03:00,73.0,45.2,29.96,East,80,0.0,2.0,37,0.00,,---,0.00,VWS V14.00,2013-10-26 19:03:00,
2013-10-26 14:05:00,73.0,45.9,29.96,East,83,0.0,2.0,38,0.00,,---,0.00,VWS V14.00,2013-10-26 19:05:00,
2013-10-26 14:06:00,73.0,45.9,29.96,East,95,0.0,2.0,38,0.00,,---,0.00,VWS V14.00,2013-10-26 19:06:00,
2013-10-26 14:07:00,72.8,45.7,29.96,ESE,102,0.0,2.0,38,0.00,,---,0.00,VWS V14.00,2013-10-26 19:07:00,
2013-10-26 14:08:00,72.7,45.7,29.96,ENE,78,0.0,2.0,38,0.00,,---,0.00,VWS V14.00,2013-10-26 19:08:00,
2013-10-26 14:10:00,72.1,45.8,29.96,ESE,117,0.0,2.0,39,0.00,,---,0.00,VWS V14.00,2013-10-26 19:10:00,
2013-10-26 14:11:00,72.1,45.8,29.96,ESE,117,0.0,2.0,39,0.00,,---,0.00,VWS V14.00,2013-10-26 19:11:00,
2013-10-26 14:12:00,72.1,45.1,29.96,ESE,117,0.0,2.0,38,0.00,,---,0.00,VWS V14.00,2013-10-26 19:12:00,
2013-10-26 14:13:00,72.1,45.1,29.96,ESE,117,0.0,2.0,38,0.00,,---,0.00,VWS V14.00,2013-10-26 19:13:00,
2013-10-26 14:15:00,72.7,45.7,29.95,East,90,0.0,2.0,38,0.00,,---,0.00,VWS V14.00,2013-10-26 19:15:00,
2013-10-26 14:16:00,73.0,45.9,29.95,East,90,0.0,2.0,38,0.00,,---,0.00,VWS V14.00,2013-10-26 19:16:00,
2013-10-26 14:17:00,73.2,46.1,29.95,East,90,0.0,2.0,38,0.00,,---,0.00,VWS V14.00,2013-10-26 19:17:00,
2013-10-26 14:18:00,73.2,46.1,29.95,East,90,0.0,2.0,38,0.00,,---,0.00,VWS V14.00,2013-10-26 19:18:00,
2013-10-26 14:20:00,73.0,45.2,29.95,East,83,3.0,6.0,37,0.00,,---,0.00,VWS V14.00,2013-10-26 19:20:00,
2013-10-26 14:21:00,72.8,45.0,29.95,East,80,1.0,6.0,37,0.00,,---,0.00,VWS V14.00,2013-10-26 19:21:00,
2013-10-26 14:22:00,72.3,46.0,29.95,East,96,3.0,6.0,39,0.00,,---,0.00,VWS V14.00,2013-10-26 19:22:00,
2013-10-26 14:23:00,72.1,45.8,29.95,East,83,1.0,6.0,39,0.00,,---,0.00,VWS V14.00,2013-10-26 19:23:00,
2013-10-26 14:24:00,71.8,45.5,29.95,East,83,0.0,6.0,39,0.00,,---,0.00,VWS V14.00,2013-10-26 19:24:00,
2013-10-26 14:25:00,71.6,45.4,29.95,NE,40,0.0,6.0,39,0.00,,---,0.00,VWS V14.00,2013-10-26 19:25:00,
2013-10-26 14:26:00,71.6,45.4,29.95,NE,40,0.0,6.0,39,0.00,,---,0.00,VWS V14.00,2013-10-26 19:26:00,
2013-10-26 14:27:00,71.5,45.9,29.95,NNE,25,1.0,6.0,40,0.00,,---,0.00,VWS V14.00,2013-10-26 19:27:00,
2013-10-26 14:28:00,71.3,47.0,29.95,NE,51,0.0,6.0,42,0.00,,---,0.00,VWS V14.00,2013-10-26 19:28:00,
2013-10-26 14:29:00,70.9,47.3,29.95,NNE,17,0.0,6.0,43,0.00,,---,0.00,VWS V14.00,2013-10-26 19:29:00,
2013-10-26 14:30:00,70.6,47.7,29.95,NE,47,0.0,0.0,44,0.00,,---,0.00,VWS V14.00,2013-10-26 19:30:00,
2013-10-26 14:31:00,70.4,48.1,29.95,NNE,27,1.0,2.0,45,0.00,,---,0.00,VWS V14.00,2013-10-26 19:31:00,
2013-10-26 14:32:00,70.3,48.0,29.95,NNE,28,2.0,3.0,45,0.00,,---,0.00,VWS V14.00,2013-10-26 19:32:00,
2013-10-26 14:33:00,70.1,47.8,29.95,NE,38,0.0,3.0,45,0.00,,---,0.00,VWS V14.00,2013-10-26 19:33:00,
2013-10-26 14:34:00,70.1,47.8,29.95,NE,40,0.0,3.0,45,0.00,,---,0.00,VWS V14.00,2013-10-26 19:34:00,
2013-10-26 14:35:00,70.3,48.6,29.95,NE,34,0.0,3.0,46,0.00,,---,0.00,VWS V14.00,2013-10-26 19:35:00,
2013-10-26 14:36:00,70.4,48.1,29.95,NNE,14,3.0,5.0,45,0.00,,---,0.00,VWS V14.00,2013-10-26 19:36:00,
2013-10-26 14:38:00,70.6,48.2,29.95,NNE,27,1.0,5.0,45,0.00,,---,0.00,VWS V14.00,2013-10-26 19:38:00,
2013-10-26 14:39:00,70.6,48.2,29.95,NE,38,2.0,5.0,45,0.00,,---,0.00,VWS V14.00,2013-10-26 19:39:00,
2013-10-26 14:40:00,70.6,48.2,29.95,North,4,6.0,6.0,45,0.00,,---,0.00,VWS V14.00,2013-10-26 19:40:00,
2013-10-26 14:41:00,70.4,48.7,29.95,North,10,7.0,12.0,46,0.00,,---,0.00,VWS V14.00,2013-10-26 19:41:00,
2013-10-26 14:43:00,70.1,47.8,29.95,North,7,7.0,12.0,45,0.00,,---,0.00,VWS V14.00,2013-10-26 19:43:00,
2013-10-26 14:45:00,69.8,48.1,29.96,NE,37,7.0,12.0,46,0.00,,---,0.00,VWS V14.00,2013-10-26 19:45:00,
2013-10-26 14:46:00,69.8,48.1,29.96,NE,54,5.0,12.0,46,0.00,,---,0.00,VWS V14.00,2013-10-26 19:46:00,
2013-10-26 14:48:00,69.8,48.7,29.96,North,7,1.0,12.0,47,0.00,,---,0.00,VWS V14.00,2013-10-26 19:48:00,
2013-10-26 14:50:00,69.8,48.1,29.96,North,8,0.0,12.0,46,0.00,,---,0.00,VWS V14.00,2013-10-26 19:50:00,
2013-10-26 14:51:00,69.9,48.2,29.96,NE,54,0.0,12.0,46,0.00,,---,0.00,VWS V14.00,2013-10-26 19:51:00,
2013-10-26 14:52:00,69.9,48.2,29.96,North,359,0.0,12.0,46,0.00,,---,0.00,VWS V14.00,2013-10-26 19:52:00,
2013-10-26 14:54:00,70.1,48.4,29.96,North,8,1.0,12.0,46,0.00,,---,0.00,VWS V14.00,2013-10-26 19:54:00,
2013-10-26 14:55:00,70.1,47.8,29.96,North,356,5.0,12.0,45,0.00,,---,0.00,VWS V14.00,2013-10-26 19:55:00,
2013-10-26 14:56:00,69.9,48.2,29.96,NNE,16,11.0,12.0,46,0.00,,---,0.00,VWS V14.00,2013-10-26 19:56:00,
2013-10-26 14:57:00,69.8,48.7,29.96,North,0,7.0,12.0,47,0.00,,---,0.00,VWS V14.00,2013-10-26 19:57:00,
2013-10-26 14:59:00,69.4,47.7,29.94,NNE,13,7.0,12.0,46,0.00,,---,0.00,VWS V14.00,2013-10-26 19:59:00,
2013-10-26 15:00:00,69.6,47.9,29.94,NNW,347,2.0,6.0,46,0.00,,---,0.00,VWS V14.00,2013-10-26 20:00:00,
2013-10-26 15:01:00,69.8,48.1,29.94,North,356,6.0,10.0,46,0.00,,---,0.00,VWS V14.00,2013-10-26 20:01:00,
2013-10-26 15:02:00,70.4,49.8,29.94,North,356,2.0,10.0,48,0.00,,---,0.00,VWS V14.00,2013-10-26 20:02:00,
2013-10-26 15:04:00,71.1,50.4,29.94,NNE,30,6.0,10.0,48,0.00,,---,0.00,VWS V14.00,2013-10-26 20:04:00,
2013-10-26 15:06:00,71.5,49.1,29.94,North,0,9.0,11.0,45,0.00,,---,0.00,VWS V14.00,2013-10-26 20:06:00,
2013-10-26 15:08:00,71.6,47.9,29.94,NE,51,6.0,11.0,43,0.00,,---,0.00,VWS V14.00,2013-10-26 20:08:00,
2013-10-26 15:09:00,71.8,48.7,29.94,NE,49,5.0,11.0,44,0.00,,---,0.00,VWS V14.00,2013-10-26 20:09:00,
2013-10-26 15:10:00,72.1,49.0,29.94,NE,48,1.0,11.0,44,0.00,,---,0.00,VWS V14.00,2013-10-26 20:10:00,
2013-10-26 15:11:00,72.1,47.8,29.94,North,349,7.0,11.0,42,0.00,,---,0.00,VWS V14.00,2013-10-26 20:11:00,
2013-10-26 15:12:00,72.3,48.0,29.94,North,1,10.0,12.0,42,0.00,,---,0.00,VWS V14.00,2013-10-26 20:12:00,
2013-10-26 15:13:00,72.3,46.7,29.94,NNE,21,8.0,12.0,40,0.00,,---,0.00,VWS V14.00,2013-10-26 20:13:00,
2013-10-26 15:14:00,72.0,46.4,29.94,North,6,10.0,12.0,40,0.00,,---,0.00,VWS V14.00,2013-10-26 20:14:00,
2013-10-26 15:15:00,72.0,47.7,29.94,North,359,11.0,12.0,42,0.00,,---,0.00,VWS V14.00,2013-10-26 20:15:00,
2013-10-26 15:16:00,71.5,47.2,29.94,North,0,9.0,12.0,42,0.00,,---,0.00,VWS V14.00,2013-10-26 20:16:00,
2013-10-26 15:17:00,71.3,48.3,29.94,NW,318,10.0,12.0,44,0.00,,---,0.00,VWS V14.00,2013-10-26 20:17:00,
2013-10-26 15:18:00,70.8,48.4,29.94,North,0,5.0,12.0,45,0.00,,---,0.00,VWS V14.00,2013-10-26 20:18:00,
2013-10-26 15:19:00,70.6,48.2,29.94,North,7,8.0,12.0,45,0.00,,---,0.00,VWS V14.00,2013-10-26 20:19:00,
2013-10-26 15:20:00,70.4,48.1,29.94,North,350,6.0,12.0,45,0.00,,---,0.00,VWS V14.00,2013-10-26 20:20:00,
2013-10-26 15:21:00,69.9,47.6,29.94,North,4,13.0,13.0,45,0.00,,---,0.00,VWS V14.00,2013-10-26 20:21:00,
2013-10-26 15:22:00,69.8,48.1,29.94,NNW,344,5.0,13.0,46,0.00,,---,0.00,VWS V14.00,2013-10-26 20:22:00,
2013-10-26 15:23:00,69.4,47.7,29.94,NNW,337,7.0,13.0,46,0.00,,---,0.00,VWS V14.00,2013-10-26 20:23:00,
2013-10-26 15:24:00,69.3,48.8,29.94,North,350,6.0,13.0,48,0.00,,---,0.00,VWS V14.00,2013-10-26 20:24:00,
2013-10-26 15:25:00,69.3,48.8,29.94,NNE,27,6.0,13.0,48,0.00,,---,0.00,VWS V14.00,2013-10-26 20:25:00,
2013-10-26 15:26:00,69.3,48.8,29.94,North,356,6.0,13.0,48,0.00,,---,0.00,VWS V14.00,2013-10-26 20:26:00,
2013-10-26 15:27:00,69.3,47.7,29.94,NNE,18,7.0,13.0,46,0.00,,---,0.00,VWS V14.00,2013-10-26 20:27:00,
2013-10-26 15:29:00,69.8,48.1,29.95,North,3,7.0,13.0,46,0.00,,---,0.00,VWS V14.00,2013-10-26 20:29:00,
2013-10-26 15:30:00,69.9,48.8,29.95,North,354,6.0,6.0,47,0.00,,---,0.00,VWS V14.00,2013-10-26 20:30:00,
2013-10-26 15:31:00,70.6,47.0,29.95,NW,320,5.0,11.0,43,0.00,,---,0.00,VWS V14.00,2013-10-26 20:31:00,
2013-10-26 15:32:00,70.8,47.2,29.95,NNE,21,7.0,11.0,43,0.00,,---,0.00,VWS V14.00,2013-10-26 20:32:00,
2013-10-26 15:34:00,71.3,48.3,29.95,North,359,10.0,13.0,44,0.00,,---,0.00,VWS V14.00,2013-10-26 20:34:00,
2013-10-26 15:35:00,71.3,47.7,29.95,North,357,7.0,13.0,43,0.00,,---,0.00,VWS V14.00,2013-10-26 20:35:00,
2013-10-26 15:36:00,71.5,47.8,29.95,NNE,20,6.0,13.0,43,0.00,,---,0.00,VWS V14.00,2013-10-26 20:36:00,
2013-10-26 15:37:00,71.6,48.6,29.95,North,10,10.0,13.0,44,0.00,,---,0.00,VWS V14.00,2013-10-26 20:37:00,
2013-10-26 15:39:00,72.0,48.3,29.95,North,352,7.0,13.0,43,0.00,,---,0.00,VWS V14.00,2013-10-26 20:39:00,
2013-10-26 15:40:00,72.0,48.3,29.95,NNW,342,8.0,13.0,43,0.00,,---,0.00,VWS V14.00,2013-10-26 20:40:00,
2013-10-26 15:41:00,72.0,48.3,29.95,North,352,8.0,13.0,43,0.00,,---,0.00,VWS V14.00,2013-10-26 20:41:00,
2013-10-26 15:42:00,71.6,47.9,29.95,NNE,20,6.0,13.0,43,0.00,,---,0.00,VWS V14.00,2013-10-26 20:42:00,
2013-10-26 15:43:00,71.6,47.9,29.95,NNE,21,6.0,13.0,43,0.00,,---,0.00,VWS V14.00,2013-10-26 20:43:00,
2013-10-26 15:44:00,71.3,48.3,29.94,North,356,6.0,13.0,44,0.00,,---,0.00,VWS V14.00,2013-10-26 20:44:00,
2013-10-26 15:45:00,71.1,48.1,29.94,North,356,3.0,13.0,44,0.00,,---,0.00,VWS V14.00,2013-10-26 20:45:00,
2013-10-26 15:46:00,70.9,47.9,29.94,North,3,7.0,13.0,44,0.00,,---,0.00,VWS V14.00,2013-10-26 20:46:00,
2013-10-26 15:47:00,70.6,48.2,29.94,North,359,8.0,13.0,45,0.00,,---,0.00,VWS V14.00,2013-10-26 20:47:00,
2013-10-26 15:48:00,69.9,47.6,29.94,NNE,31,7.0,13.0,45,0.00,,---,0.00,VWS V14.00,2013-10-26 20:48:00,
2013-10-26 15:50:00,69.4,47.7,29.94,NE,35,7.0,13.0,46,0.00,,---,0.00,VWS V14.00,2013-10-26 20:50:00,
2013-10-26 15:51:00,69.4,48.3,29.94,North,0,2.0,13.0,47,0.00,,---,0.00,VWS V14.00,2013-10-26 20:51:00,
2013-10-26 15:52:00,69.4,47.7,29.94,North,0,6.0,13.0,46,0.00,,---,0.00,VWS V14.00,2013-10-26 20:52:00,
2013-10-26 15:53:00,69.6,47.9,29.94,NNW,346,5.0,13.0,46,0.00,,---,0.00,VWS V14.00,2013-10-26 20:53:00,
2013-10-26 15:55:00,70.1,47.8,29.94,NNW,339,4.0,13.0,45,0.00,,---,0.00,VWS V14.00,2013-10-26 20:55:00,
2013-10-26 15:56:00,70.1,47.8,29.94,North,354,5.0,13.0,45,0.00,,---,0.00,VWS V14.00,2013-10-26 20:56:00,
2013-10-26 15:58:00,70.1,48.4,29.94,North,359,10.0,13.0,46,0.00,,---,0.00,VWS V14.00,2013-10-26 20:58:00,
2013-10-26 15:59:00,70.3,48.6,29.95,North,10,5.0,13.0,46,0.00,,---,0.00,VWS V14.00,2013-10-26 20:59:00,
2013-10-26 16:00:00,70.4,48.7,29.95,North,359,7.0,10.0,46,0.00,,---,0.00,VWS V14.00,2013-10-26 21:00:00,
2013-10-26 16:01:00,70.4,48.7,29.95,North,357,7.0,14.0,46,0.00,,---,0.00,VWS V14.00,2013-10-26 21:01:00,
2013-10-26 16:03:00,70.4,48.7,29.95,NNW,342,8.0,14.0,46,0.00,,---,0.00,VWS V14.00,2013-10-26 21:03:00,
2013-10-26 16:04:00,70.4,48.7,29.95,NNE,13,9.0,14.0,46,0.00,,---,0.00,VWS V14.00,2013-10-26 21:04:00,
2013-10-26 16:05:00,70.3,48.6,29.95,North,359,5.0,14.0,46,0.00,,---,0.00,VWS V14.00,2013-10-26 21:05:00,
2013-10-26 16:06:00,69.9,48.2,29.95,North,10,6.0,14.0,46,0.00,,---,0.00,VWS V14.00,2013-10-26 21:06:00,
2013-10-26 16:07:00,69.9,48.2,29.95,North,0,7.0,14.0,46,0.00,,---,0.00,VWS V14.00,2013-10-26 21:07:00,
2013-10-26 16:08:00,69.4,48.3,29.95,North,6,7.0,14.0,47,0.00,,---,0.00,VWS V14.00,2013-10-26 21:08:00,
2013-10-26 16:09:00,69.3,48.8,29.95,North,356,2.0,14.0,48,0.00,,---,0.00,VWS V14.00,2013-10-26 21:09:00,
2013-10-26 16:10:00,69.1,48.0,29.95,NW,316,8.0,14.0,47,0.00,,---,0.00,VWS V14.00,2013-10-26 21:10:00,
2013-10-26 16:11:00,68.9,47.9,29.95,NNW,340,8.0,14.0,47,0.00,,---,0.00,VWS V14.00,2013-10-26 21:11:00,
2013-10-26 16:12:00,68.8,48.9,29.95,NNW,343,6.0,14.0,49,0.00,,---,0.00,VWS V14.00,2013-10-26 21:12:00,
2013-10-26 16:13:00,68.9,48.4,29.95,NW,326,6.0,14.0,48,0.00,,---,0.00,VWS V14.00,2013-10-26 21:13:00,
2013-10-26 16:15:00,69.4,47.7,29.95,NNW,337,6.0,14.0,46,0.00,,---,0.00,VWS V14.00,2013-10-26 21:15:00,
2013-10-26 16:16:00,69.4,48.9,29.95,NNW,328,5.0,14.0,48,0.00,,---,0.00,VWS V14.00,2013-10-26 21:16:00,
2013-10-26 16:17:00,69.9,47.6,29.95,NW,312,2.0,14.0,45,0.00,,---,0.00,VWS V14.00,2013-10-26 21:17:00,
2013-10-26 16:18:00,70.3,48.6,29.95,NW,322,2.0,14.0,46,0.00,,---,0.00,VWS V14.00,2013-10-26 21:18:00,
2013-10-26 16:19:00,70.8,49.0,29.95,NE,48,5.0,14.0,46,0.00,,---,0.00,VWS V14.00,2013-10-26 21:19:00,
2013-10-26 16:20:00,71.1,48.1,29.95,NE,38,7.0,14.0,44,0.00,,---,0.00,VWS V14.00,2013-10-26 21:20:00,
2013-10-26 16:21:00,71.3,48.3,29.95,NE,34,8.0,14.0,44,0.00,,---,0.00,VWS V14.00,2013-10-26 21:21:00,
2013-10-26 16:23:00,71.3,47.7,29.95,North,0,6.0,14.0,43,0.00,,---,0.00,VWS V14.00,2013-10-26 21:23:00,
2013-10-26 16:24:00,71.3,48.3,29.95,North,0,5.0,14.0,44,0.00,,---,0.00,VWS V14.00,2013-10-26 21:24:00,
2013-10-26 16:26:00,70.9,47.9,29.95,NNW,342,2.0,14.0,44,0.00,,---,0.00,VWS V14.00,2013-10-26 21:26:00,
2013-10-26 16:28:00,70.4,48.1,29.95,North,350,8.0,14.0,45,0.00,,---,0.00,VWS V14.00,2013-10-26 21:28:00,
2013-10-26 16:29:00,70.4,48.1,29.94,NNW,346,5.0,14.0,45,0.00,,---,0.00,VWS V14.00,2013-10-26 21:29:00,
2013-10-26 16:31:00,70.4,48.1,29.94,North,0,4.0,10.0,45,0.00,,---,0.00,VWS V14.00,2013-10-26 21:31:00,
2013-10-26 16:32:00,70.4,48.1,29.94,North,8,5.0,10.0,45,0.00,,---,0.00,VWS V14.00,2013-10-26 21:32:00,
2013-10-26 16:34:00,70.8,47.8,29.94,NNE,16,0.0,10.0,44,0.00,,---,0.00,VWS V14.00,2013-10-26 21:34:00,
2013-10-26 16:36:00,70.4,47.5,29.94,NE,48,0.0,10.0,44,0.00,,---,0.00,VWS V14.00,2013-10-26 21:36:00,
2013-10-26 16:37:00,70.3,47.4,29.94,NNE,13,0.0,10.0,44,0.00,,---,0.00,VWS V14.00,2013-10-26 21:37:00,
2013-10-26 16:39:00,69.9,47.6,29.94,NNW,332,0.0,10.0,45,0.00,,---,0.00,VWS V14.00,2013-10-26 21:39:00,
2013-10-26 16:40:00,69.9,47.6,29.94,NNW,347,0.0,10.0,45,0.00,,---,0.00,VWS V14.00,2013-10-26 21:40:00,
2013-10-26 16:41:00,69.6,47.9,29.94,NNE,21,0.0,10.0,46,0.00,,---,0.00,VWS V14.00,2013-10-26 21:41:00,
2013-10-26 16:42:00,69.6,47.9,29.94,NNE,21,0.0,10.0,46,0.00,,---,0.00,VWS V14.00,2013-10-26 21:42:00,
2013-10-26 16:44:00,69.1,47.5,29.94,North,359,0.0,10.0,46,0.00,,---,0.00,VWS V14.00,2013-10-26 21:44:00,
2013-10-26 16:45:00,69.1,47.5,29.94,North,356,0.0,10.0,46,0.00,,---,0.00,VWS V14.00,2013-10-26 21:45:00,
2013-10-26 16:46:00,68.8,47.2,29.94,North,353,2.0,10.0,46,0.00,,---,0.00,VWS V14.00,2013-10-26 21:46:00,
2013-10-26 16:47:00,68.8,47.2,29.94,North,353,2.0,10.0,46,0.00,,---,0.00,VWS V14.00,2013-10-26 21:47:00,
2013-10-26 16:50:00,68.4,47.4,29.94,North,353,0.0,10.0,47,0.00,,---,0.00,VWS V14.00,2013-10-26 21:50:00,
2013-10-26 16:52:00,68.1,47.7,29.94,NNE,13,0.0,10.0,48,0.00,,---,0.00,VWS V14.00,2013-10-26 21:52:00,
2013-10-26 16:55:00,67.9,47.0,29.94,North,0,0.0,10.0,47,0.00,,---,0.00,VWS V14.00,2013-10-26 21:55:00,
2013-10-26 16:57:00,67.9,47.0,29.94,North,11,0.0,10.0,47,0.00,,---,0.00,VWS V14.00,2013-10-26 21:57:00,
2013-10-26 16:58:00,67.9,47.0,29.94,North,356,0.0,10.0,47,0.00,,---,0.00,VWS V14.00,2013-10-26 21:58:00,
2013-10-26 17:00:00,67.9,47.0,29.96,North,0,0.0,0.0,47,0.00,,---,0.00,VWS V14.00,2013-10-26 22:00:00,
2013-10-26 17:01:00,67.9,47.0,29.96,North,0,0.0,0.0,47,0.00,,---,0.00,VWS V14.00,2013-10-26 22:01:00,
2013-10-26 17:02:00,67.8,46.9,29.96,North,4,0.0,0.0,47,0.00,,---,0.00,VWS V14.00,2013-10-26 22:02:00,
2013-10-26 17:03:00,67.8,46.9,29.96,NNE,23,0.0,0.0,47,0.00,,---,0.00,VWS V14.00,2013-10-26 22:03:00,
2013-10-26 17:05:00,67.6,46.7,29.96,North,354,0.0,0.0,47,0.00,,---,0.00,VWS V14.00,2013-10-26 22:05:00,
2013-10-26 17:06:00,67.6,46.7,29.96,North,4,0.0,0.0,47,0.00,,---,0.00,VWS V14.00,2013-10-26 22:06:00,
2013-10-26 17:07:00,67.4,46.5,29.96,NNE,14,0.0,0.0,47,0.00,,---,0.00,VWS V14.00,2013-10-26 22:07:00,
2013-10-26 17:08:00,67.4,46.5,29.96,North,3,0.0,0.0,47,0.00,,---,0.00,VWS V14.00,2013-10-26 22:08:00,
2013-10-26 17:10:00,67.1,46.2,29.96,NNE,32,0.0,0.0,47,0.00,,---,0.00,VWS V14.00,2013-10-26 22:10:00,
2013-10-26 17:12:00,66.9,46.0,29.96,NNE,25,0.0,0.0,47,0.00,,---,0.00,VWS V14.00,2013-10-26 22:12:00,
2013-10-26 17:13:00,66.9,46.0,29.96,NNE,32,0.0,0.0,47,0.00,,---,0.00,VWS V14.00,2013-10-26 22:13:00,
2013-10-26 17:15:00,67.4,46.5,29.97,North,6,0.0,0.0,47,0.00,,---,0.00,VWS V14.00,2013-10-26 22:15:00,
2013-10-26 17:16:00,67.4,45.9,29.97,NNE,20,0.0,0.0,46,0.00,,---,0.00,VWS V14.00,2013-10-26 22:16:00,
2013-10-26 17:17:00,67.4,45.9,29.97,North,359,0.0,0.0,46,0.00,,---,0.00,VWS V14.00,2013-10-26 22:17:00,
2013-10-26 17:18:00,67.4,45.9,29.97,North,0,0.0,0.0,46,0.00,,---,0.00,VWS V14.00,2013-10-26 22:18:00,
2013-10-26 17:19:00,67.4,45.9,29.97,North,0,0.0,0.0,46,0.00,,---,0.00,VWS V14.00,2013-10-26 22:19:00,
2013-10-26 17:20:00,67.3,45.8,29.97,North,356,0.0,0.0,46,0.00,,---,0.00,VWS V14.00,2013-10-26 22:20:00,
2013-10-26 17:21:00,67.3,45.8,29.97,North,6,0.0,0.0,46,0.00,,---,0.00,VWS V14.00,2013-10-26 22:21:00,
2013-10-26 17:22:00,67.3,45.8,29.97,North,356,0.0,0.0,46,0.00,,---,0.00,VWS V14.00,2013-10-26 22:22:00,
2013-10-26 17:23:00,67.1,45.7,29.97,NNE,27,6.0,10.0,46,0.00,,---,0.00,VWS V14.00,2013-10-26 22:23:00,
2013-10-26 17:24:00,67.3,45.8,29.97,North,6,5.0,10.0,46,0.00,,---,0.00,VWS V14.00,2013-10-26 22:24:00,
2013-10-26 17:25:00,67.3,45.8,29.97,North,4,0.0,10.0,46,0.00,,---,0.00,VWS V14.00,2013-10-26 22:25:00,
2013-10-26 17:26:00,67.3,45.8,29.97,NNW,340,3.0,10.0,46,0.00,,---,0.00,VWS V14.00,2013-10-26 22:26:00,
2013-10-26 17:27:00,67.1,45.7,29.97,North,8,8.0,10.0,46,0.00,,---,0.00,VWS V14.00,2013-10-26 22:27:00,
2013-10-26 17:29:00,67.1,45.7,29.97,North,11,7.0,10.0,46,0.00,,---,0.00,VWS V14.00,2013-10-26 22:29:00,
2013-10-26 17:30:00,66.9,45.5,29.97,North,0,5.0,6.0,46,0.00,,---,0.00,VWS V14.00,2013-10-26 22:30:00,
2013-10-26 17:31:00,66.9,45.5,29.97,North,0,2.0,6.0,46,0.00,,---,0.00,VWS V14.00,2013-10-26 22:31:00,
2013-10-26 17:33:00,66.8,45.4,29.97,North,1,0.0,6.0,46,0.00,,---,0.00,VWS V14.00,2013-10-26 22:33:00,
2013-10-26 17:34:00,66.8,45.4,29.97,North,1,0.0,6.0,46,0.00,,---,0.00,VWS V14.00,2013-10-26 22:34:00,
2013-10-26 17:35:00,66.8,45.4,29.97,NNE,31,6.0,8.0,46,0.00,,---,0.00,VWS V14.00,2013-10-26 22:35:00,
2013-10-26 17:36:00,66.8,45.4,29.97,North,11,7.0,8.0,46,0.00,,---,0.00,VWS V14.00,2013-10-26 22:36:00,
2013-10-26 17:38:00,66.6,45.2,29.97,NNW,344,6.0,8.0,46,0.00,,---,0.00,VWS V14.00,2013-10-26 22:38:00,
2013-10-26 17:39:00,66.6,45.2,29.97,North,0,7.0,8.0,46,0.00,,---,0.00,VWS V14.00,2013-10-26 22:39:00,
2013-10-26 17:41:00,66.4,45.6,29.97,North,7,6.0,10.0,47,0.00,,---,0.00,VWS V14.00,2013-10-26 22:41:00,
2013-10-26 17:42:00,66.3,45.5,29.97,North,0,2.0,10.0,47,0.00,,---,0.00,VWS V14.00,2013-10-26 22:42:00,
2013-10-26 17:43:00,66.3,45.5,29.97,North,354,7.0,10.0,47,0.00,,---,0.00,VWS V14.00,2013-10-26 22:43:00,
2013-10-26 17:44:00,66.3,45.5,29.99,North,4,10.0,10.0,47,0.00,,---,0.00,VWS V14.00,2013-10-26 22:44:00,
2013-10-26 17:46:00,66.4,45.0,29.99,NE,34,3.0,10.0,46,0.00,,---,0.00,VWS V14.00,2013-10-26 22:46:00,
2013-10-26 17:48:00,66.4,45.0,29.99,NNE,24,5.0,10.0,46,0.00,,---,0.00,VWS V14.00,2013-10-26 22:48:00,
2013-10-26 17:49:00,66.4,45.0,29.99,NNE,16,6.0,10.0,46,0.00,,---,0.00,VWS V14.00,2013-10-26 22:49:00,
2013-10-26 17:51:00,66.8,45.9,29.99,NNE,16,5.0,10.0,47,0.00,,---,0.00,VWS V14.00,2013-10-26 22:51:00,
2013-10-26 17:52:00,66.8,45.9,29.99,NNE,13,2.0,10.0,47,0.00,,---,0.00,VWS V14.00,2013-10-26 22:52:00,
2013-10-26 17:54:00,67.1,45.7,29.99,North,357,5.0,10.0,46,0.00,,---,0.00,VWS V14.00,2013-10-26 22:54:00,
2013-10-26 17:56:00,67.1,45.7,29.99,NNE,23,7.0,10.0,46,0.00,,---,0.00,VWS V14.00,2013-10-26 22:56:00,
2013-10-26 17:57:00,66.9,45.5,29.99,North,4,3.0,10.0,46,0.00,,---,0.00,VWS V14.00,2013-10-26 22:57:00,
2013-10-26 17:59:00,66.8,44.8,29.98,North,0,6.0,11.0,45,0.00,,---,0.00,VWS V14.00,2013-10-26 22:59:00,
2013-10-26 18:01:00,66.8,44.8,29.98,NNE,32,5.0,10.0,45,0.00,,---,0.00,VWS V14.00,2013-10-26 23:01:00,
2013-10-26 18:02:00,66.6,45.2,29.98,North,7,2.0,10.0,46,0.00,,---,0.00,VWS V14.00,2013-10-26 23:02:00,
2013-10-26 18:04:00,66.4,45.0,29.98,North,7,6.0,10.0,46,0.00,,---,0.00,VWS V14.00,2013-10-26 23:04:00,
2013-10-26 18:05:00,66.4,45.0,29.98,North,0,5.0,10.0,46,0.00,,---,0.00,VWS V14.00,2013-10-26 23:05:00,
2013-10-26 18:06:00,66.3,46.0,29.98,North,359,2.0,10.0,48,0.00,,---,0.00,VWS V14.00,2013-10-26 23:06:00,
2013-10-26 18:07:00,66.3,45.5,29.98,North,3,6.0,10.0,47,0.00,,---,0.00,VWS V14.00,2013-10-26 23:07:00,
2013-10-26 18:09:00,66.1,45.3,29.98,NNW,342,7.0,10.0,47,0.00,,---,0.00,VWS V14.00,2013-10-26 23:09:00,
2013-10-26 18:10:00,66.1,45.3,29.98,North,354,5.0,10.0,47,0.00,,---,0.00,VWS V14.00,2013-10-26 23:10:00,
2013-10-26 18:11:00,66.0,45.8,29.98,North,353,5.0,10.0,48,0.00,,---,0.00,VWS V14.00,2013-10-26 23:11:00,
2013-10-26 18:12:00,66.0,45.2,29.98,North,3,4.0,10.0,47,0.00,,---,0.00,VWS V14.00,2013-10-26 23:12:00,
2013-10-26 18:14:00,65.8,45.0,29.99,NNE,13,5.0,10.0,47,0.00,,---,0.00,VWS V14.00,2013-10-26 23:14:00,
2013-10-26 18:15:00,65.8,45.0,29.99,NNE,13,4.0,10.0,47,0.00,,---,0.00,VWS V14.00,2013-10-26 23:15:00,
2013-10-26 18:16:00,65.6,44.8,29.99,NNE,23,4.0,10.0,47,0.00,,---,0.00,VWS V14.00,2013-10-26 23:16:00,
2013-10-26 18:18:00,65.5,44.8,29.99,NNE,17,5.0,10.0,47,0.00,,---,0.00,VWS V14.00,2013-10-26 23:18:00,
2013-10-26 18:19:00,65.3,45.1,29.99,North,4,4.0,10.0,48,0.00,,---,0.00,VWS V14.00,2013-10-26 23:19:00,
2013-10-26 18:20:00,65.3,45.1,29.99,North,354,3.0,10.0,48,0.00,,---,0.00,VWS V14.00,2013-10-26 23:20:00,
2013-10-26 18:21:00,65.2,45.0,29.99,North,356,5.0,10.0,48,0.00,,---,0.00,VWS V14.00,2013-10-26 23:21:00,
2013-10-26 18:24:00,65.0,44.3,29.99,NNE,23,6.0,10.0,47,0.00,,---,0.00,VWS V14.00,2013-10-26 23:24:00,
2013-10-26 18:25:00,64.8,44.1,29.99,North,10,6.0,10.0,47,0.00,,---,0.00,VWS V14.00,2013-10-26 23:25:00,
2013-10-26 18:26:00,64.8,44.7,29.99,NNE,27,5.0,10.0,48,0.00,,---,0.00,VWS V14.00,2013-10-26 23:26:00,
2013-10-26 18:29:00,64.7,44.6,30.01,NNE,31,7.0,10.0,48,0.00,,---,0.00,VWS V14.00,2013-10-26 23:29:00,
2013-10-26 18:30:00,64.7,44.6,30.01,North,11,5.0,5.0,48,0.00,,---,0.00,VWS V14.00,2013-10-26 23:30:00,
2013-10-26 18:31:00,64.5,44.9,30.01,NNE,14,4.0,7.0,49,0.00,,---,0.00,VWS V14.00,2013-10-26 23:31:00,
2013-10-26 18:34:00,64.3,44.2,30.01,North,0,5.0,7.0,48,0.00,,---,0.00,VWS V14.00,2013-10-26 23:34:00,
2013-10-26 18:35:00,64.3,44.2,30.01,North,0,3.0,7.0,48,0.00,,---,0.00,VWS V14.00,2013-10-26 23:35:00,
2013-10-26 18:36:00,64.3,44.2,30.01,NNE,32,5.0,8.0,48,0.00,,---,0.00,VWS V14.00,2013-10-26 23:36:00,
2013-10-26 18:39:00,64.3,44.2,30.01,NNE,18,1.0,8.0,48,0.00,,---,0.00,VWS V14.00,2013-10-26 23:39:00,
2013-10-26 18:40:00,64.3,44.2,30.01,NNE,18,1.0,8.0,48,0.00,,---,0.00,VWS V14.00,2013-10-26 23:40:00,
2013-10-26 18:41:00,64.3,44.2,30.01,NNE,32,6.0,8.0,48,0.00,,---,0.00,VWS V14.00,2013-10-26 23:41:00,
2013-10-26 18:45:00,64.3,45.3,30.01,North,0,6.0,9.0,50,0.00,,---,0.00,VWS V14.00,2013-10-26 23:45:00,
2013-10-26 18:46:00,64.3,45.3,30.01,North,359,6.0,10.0,50,0.00,,---,0.00,VWS V14.00,2013-10-26 23:46:00,
2013-10-26 18:47:00,64.3,44.2,30.01,North,6,6.0,10.0,48,0.00,,---,0.00,VWS V14.00,2013-10-26 23:47:00,
2013-10-26 18:50:00,64.2,45.2,30.01,North,0,8.0,11.0,50,0.00,,---,0.00,VWS V14.00,2013-10-26 23:50:00,
2013-10-26 18:51:00,64.2,45.2,30.01,North,354,4.0,11.0,50,0.00,,---,0.00,VWS V14.00,2013-10-26 23:51:00,
2013-10-26 18:52:00,64.2,45.2,30.01,NNE,21,5.0,11.0,50,0.00,,---,0.00,VWS V14.00,2013-10-26 23:52:00,
2013-10-26 18:55:00,64.0,43.9,30.01,NNE,28,8.0,11.0,48,0.00,,---,0.00,VWS V14.00,2013-10-26 23:55:00,
2013-10-26 18:56:00,63.9,45.4,30.01,North,354,6.0,11.0,51,0.00,,---,0.00,VWS V14.00,2013-10-26 23:56:00,
2013-10-26 18:57:00,63.9,45.4,30.01,North,11,6.0,11.0,51,0.00,,---,0.00,VWS V14.00,2013-10-26 23:57:00,
2013-10-26 19:00:00,63.7,44.2,30.01,North,8,6.0,6.0,49,0.00,,---,0.00,VWS V14.00,2013-10-27 00:00:00,
2013-10-26 19:01:00,63.5,44.5,30.01,North,6,6.0,7.0,50,0.00,,---,0.00,VWS V14.00,2013-10-27 00:01:00,
2013-10-26 19:02:00,63.5,44.5,30.01,NNE,25,3.0,7.0,50,0.00,,---,0.00,VWS V14.00,2013-10-27 00:02:00,
2013-10-26 19:05:00,63.2,44.3,30.01,NNE,20,0.0,7.0,50,0.00,,---,0.00,VWS V14.00,2013-10-27 00:05:00,
2013-10-26 19:07:00,63.1,44.2,30.01,North,7,0.0,7.0,50,0.00,,---,0.00,VWS V14.00,2013-10-27 00:07:00,
2013-10-26 19:08:00,63.1,44.2,30.01,NE,35,0.0,7.0,50,0.00,,---,0.00,VWS V14.00,2013-10-27 00:08:00,
2013-10-26 19:10:00,62.9,43.5,30.01,NNE,17,0.0,7.0,49,0.00,,---,0.00,VWS V14.00,2013-10-27 00:10:00,
2013-10-26 19:12:00,62.9,44.0,30.01,North,0,0.0,7.0,50,0.00,,---,0.00,VWS V14.00,2013-10-27 00:12:00,
2013-10-26 19:13:00,62.7,43.3,30.01,NNE,17,0.0,7.0,49,0.00,,---,0.00,VWS V14.00,2013-10-27 00:13:00,
2013-10-26 19:15:00,62.6,43.2,30.04,NNE,18,0.0,7.0,49,0.00,,---,0.00,VWS V14.00,2013-10-27 00:15:00,
2013-10-26 19:17:00,62.4,43.0,30.04,North,356,0.0,7.0,49,0.00,,---,0.00,VWS V14.00,2013-10-27 00:17:00,
2013-10-26 19:18:00,62.3,42.9,30.04,North,354,0.0,7.0,49,0.00,,---,0.00,VWS V14.00,2013-10-27 00:18:00,
2013-10-26 19:20:00,62.1,43.3,30.04,North,356,0.0,7.0,50,0.00,,---,0.00,VWS V14.00,2013-10-27 00:20:00,
2013-10-26 19:22:00,62.0,43.2,30.04,North,356,0.0,7.0,50,0.00,,---,0.00,VWS V14.00,2013-10-27 00:22:00,
2013-10-26 19:23:00,62.0,43.2,30.04,North,356,0.0,7.0,50,0.00,,---,0.00,VWS V14.00,2013-10-27 00:23:00,
2013-10-26 19:24:00,62.0,43.2,30.04,North,354,0.0,7.0,50,0.00,,---,0.00,VWS V14.00,2013-10-27 00:24:00,
2013-10-26 19:25:00,61.8,43.0,30.04,North,354,0.0,7.0,50,0.00,,---,0.00,VWS V14.00,2013-10-27 00:25:00,
2013-10-26 19:27:00,61.6,42.8,30.04,North,354,0.0,7.0,50,0.00,,---,0.00,VWS V14.00,2013-10-27 00:27:00,
2013-10-26 19:28:00,61.6,42.8,30.04,North,356,0.0,7.0,50,0.00,,---,0.00,VWS V14.00,2013-10-27 00:28:00,
2013-10-26 19:29:00,61.6,43.3,30.06,North,356,0.0,7.0,51,0.00,,---,0.00,VWS V14.00,2013-10-27 00:29:00,
2013-10-26 19:30:00,61.5,43.2,30.06,North,356,0.0,0.0,51,0.00,,---,0.00,VWS V14.00,2013-10-27 00:30:00,
2013-10-26 19:33:00,61.5,43.2,30.06,North,356,0.0,0.0,51,0.00,,---,0.00,VWS V14.00,2013-10-27 00:33:00,
2013-10-26 19:34:00,61.3,43.0,30.06,North,356,0.0,0.0,51,0.00,,---,0.00,VWS V14.00,2013-10-27 00:34:00,
2013-10-26 19:36:00,61.2,43.0,30.06,North,354,0.0,0.0,51,0.00,,---,0.00,VWS V14.00,2013-10-27 00:36:00,
2013-10-26 19:38:00,61.0,43.3,30.06,North,356,0.0,0.0,52,0.00,,---,0.00,VWS V14.00,2013-10-27 00:38:00,
2013-10-26 19:39:00,60.9,43.2,30.06,North,354,0.0,0.0,52,0.00,,---,0.00,VWS V14.00,2013-10-27 00:39:00,
2013-10-26 19:41:00,60.7,43.0,30.06,North,354,0.0,0.0,52,0.00,,---,0.00,VWS V14.00,2013-10-27 00:41:00,
2013-10-26 19:43:00,60.5,43.3,30.06,North,354,0.0,0.0,53,0.00,,---,0.00,VWS V14.00,2013-10-27 00:43:00,
2013-10-26 19:44:00,60.5,43.3,30.06,North,354,0.0,0.0,53,0.00,,---,0.00,VWS V14.00,2013-10-27 00:44:00,
2013-10-26 19:45:00,60.4,43.2,30.06,North,354,0.0,0.0,53,0.00,,---,0.00,VWS V14.00,2013-10-27 00:45:00,
2013-10-26 19:46:00,60.2,43.0,30.06,North,354,0.0,0.0,53,0.00,,---,0.00,VWS V14.00,2013-10-27 00:46:00,
2013-10-26 19:48:00,59.9,42.7,30.06,North,354,0.0,0.0,53,0.00,,---,0.00,VWS V14.00,2013-10-27 00:48:00,
2013-10-26 19:49:00,59.8,43.1,30.06,North,354,0.0,0.0,54,0.00,,---,0.00,VWS V14.00,2013-10-27 00:49:00,
2013-10-26 19:50:00,59.6,43.4,30.06,North,354,0.0,0.0,55,0.00,,---,0.00,VWS V14.00,2013-10-27 00:50:00,
2013-10-26 19:51:00,59.5,43.3,30.06,North,354,0.0,0.0,55,0.00,,---,0.00,VWS V14.00,2013-10-27 00:51:00,
2013-10-26 19:53:00,59.2,43.1,30.06,North,354,0.0,0.0,55,0.00,,---,0.00,VWS V14.00,2013-10-27 00:53:00,
2013-10-26 19:54:00,59.0,42.9,30.06,North,354,0.0,0.0,55,0.00,,---,0.00,VWS V14.00,2013-10-27 00:54:00,
2013-10-26 19:55:00,58.9,42.8,30.06,North,354,0.0,0.0,55,0.00,,---,0.00,VWS V14.00,2013-10-27 00:55:00,
2013-10-26 19:56:00,58.6,42.5,30.06,North,354,0.0,0.0,55,0.00,,---,0.00,VWS V14.00,2013-10-27 00:56:00,
2013-10-26 19:59:00,58.1,43.0,30.09,North,354,0.0,0.0,57,0.00,,---,0.00,VWS V14.00,2013-10-27 00:59:00,
2013-10-26 20:01:00,57.8,43.1,30.09,North,354,0.0,0.0,58,0.00,,---,0.00,VWS V14.00,2013-10-27 01:01:00,
2013-10-26 20:04:00,57.2,42.6,30.09,North,354,0.0,0.0,58,0.00,,---,0.00,VWS V14.00,2013-10-27 01:04:00,
2013-10-26 20:05:00,57.0,42.8,30.09,North,354,0.0,0.0,59,0.00,,---,0.00,VWS V14.00,2013-10-27 01:05:00,
2013-10-26 20:06:00,56.7,43.0,30.09,North,354,0.0,0.0,60,0.00,,---,0.00,VWS V14.00,2013-10-27 01:06:00,
2013-10-26 20:09:00,56.3,43.0,30.09,North,354,0.0,0.0,61,0.00,,---,0.00,VWS V14.00,2013-10-27 01:09:00,
2013-10-26 20:10:00,56.0,43.2,30.09,North,354,0.0,0.0,62,0.00,,---,0.00,VWS V14.00,2013-10-27 01:10:00,
2013-10-26 20:11:00,55.7,42.5,30.09,North,354,0.0,0.0,61,0.00,,---,0.00,VWS V14.00,2013-10-27 01:11:00,
2013-10-26 20:12:00,55.6,42.4,30.09,North,354,0.0,0.0,61,0.00,,---,0.00,VWS V14.00,2013-10-27 01:12:00,
2013-10-26 20:14:00,55.3,42.5,30.07,North,354,0.0,0.0,62,0.00,,---,0.00,VWS V14.00,2013-10-27 01:14:00,
2013-10-26 20:15:00,55.3,42.5,30.07,North,354,0.0,0.0,62,0.00,,---,0.00,VWS V14.00,2013-10-27 01:15:00,
2013-10-26 20:17:00,55.3,42.5,30.07,North,354,0.0,0.0,62,0.00,,---,0.00,VWS V14.00,2013-10-27 01:17:00,
2013-10-26 20:19:00,55.3,42.5,30.07,North,354,0.0,0.0,62,0.00,,---,0.00,VWS V14.00,2013-10-27 01:19:00,
2013-10-26 20:21:00,54.4,41.7,30.07,North,354,0.0,0.0,62,0.00,,---,0.00,VWS V14.00,2013-10-27 01:21:00,
2013-10-26 20:22:00,54.4,41.7,30.07,North,354,0.0,0.0,62,0.00,,---,0.00,VWS V14.00,2013-10-27 01:22:00,
2013-10-26 20:23:00,54.4,41.7,30.07,North,354,0.0,0.0,62,0.00,,---,0.00,VWS V14.00,2013-10-27 01:23:00,
2013-10-26 20:24:00,54.4,41.7,30.07,North,354,0.0,0.0,62,0.00,,---,0.00,VWS V14.00,2013-10-27 01:24:00,
2013-10-26 20:26:00,54.4,41.7,30.07,North,354,0.0,0.0,62,0.00,,---,0.00,VWS V14.00,2013-10-27 01:26:00,
2013-10-26 20:27:00,54.4,41.7,30.07,North,354,0.0,0.0,62,0.00,,---,0.00,VWS V14.00,2013-10-27 01:27:00,
2013-10-26 20:28:00,54.4,41.7,30.07,North,354,0.0,0.0,62,0.00,,---,0.00,VWS V14.00,2013-10-27 01:28:00,
2013-10-26 20:29:00,53.2,40.5,30.09,North,354,0.0,0.0,62,0.00,,---,0.00,VWS V14.00,2013-10-27 01:29:00,
2013-10-26 20:31:00,53.2,40.5,30.09,North,354,0.0,0.0,62,0.00,,---,0.00,VWS V14.00,2013-10-27 01:31:00,
2013-10-26 20:32:00,53.2,40.5,30.09,North,354,0.0,0.0,62,0.00,,---,0.00,VWS V14.00,2013-10-27 01:32:00,
2013-10-26 20:33:00,53.2,40.5,30.09,North,354,0.0,0.0,62,0.00,,---,0.00,VWS V14.00,2013-10-27 01:33:00,
2013-10-26 20:34:00,53.2,40.5,30.09,North,354,0.0,0.0,62,0.00,,---,0.00,VWS V14.00,2013-10-27 01:34:00,
2013-10-26 20:35:00,53.2,40.5,30.09,North,354,0.0,0.0,62,0.00,,---,0.00,VWS V14.00,2013-10-27 01:35:00,
2013-10-26 20:36:00,53.2,40.5,30.09,North,354,0.0,0.0,62,0.00,,---,0.00,VWS V14.00,2013-10-27 01:36:00,
2013-10-26 20:38:00,53.2,40.5,30.09,North,354,0.0,0.0,62,0.00,,---,0.00,VWS V14.00,2013-10-27 01:38:00,
2013-10-26 20:39:00,53.2,40.5,30.09,North,354,0.0,0.0,62,0.00,,---,0.00,VWS V14.00,2013-10-27 01:39:00,
2013-10-26 20:40:00,53.2,40.5,30.09,North,354,0.0,0.0,62,0.00,,---,0.00,VWS V14.00,2013-10-27 01:40:00,
2013-10-26 20:41:00,53.2,40.5,30.09,North,354,0.0,0.0,62,0.00,,---,0.00,VWS V14.00,2013-10-27 01:41:00,
2013-10-26 20:43:00,53.2,40.5,30.09,North,354,0.0,0.0,62,0.00,,---,0.00,VWS V14.00,2013-10-27 01:43:00,
2013-10-26 20:44:00,53.2,40.5,30.09,North,354,0.0,0.0,62,0.00,,---,0.00,VWS V14.00,2013-10-27 01:44:00,
2013-10-26 20:46:00,52.8,40.2,30.09,North,354,0.0,0.0,62,0.00,,---,0.00,VWS V14.00,2013-10-27 01:46:00,
2013-10-26 20:47:00,52.8,40.2,30.09,North,354,0.0,0.0,62,0.00,,---,0.00,VWS V14.00,2013-10-27 01:47:00,
2013-10-26 20:48:00,52.6,40.0,30.09,North,354,0.0,0.0,62,0.00,,---,0.00,VWS V14.00,2013-10-27 01:48:00,
2013-10-26 20:49:00,52.6,40.0,30.09,North,354,0.0,0.0,62,0.00,,---,0.00,VWS V14.00,2013-10-27 01:49:00,
2013-10-26 20:51:00,52.5,39.9,30.09,North,354,0.0,0.0,62,0.00,,---,0.00,VWS V14.00,2013-10-27 01:51:00,
2013-10-26 20:53:00,52.5,39.9,30.09,North,354,0.0,0.0,62,0.00,,---,0.00,VWS V14.00,2013-10-27 01:53:00,
2013-10-26 20:54:00,52.5,39.9,30.09,North,354,0.0,0.0,62,0.00,,---,0.00,VWS V14.00,2013-10-27 01:54:00,
2013-10-26 20:55:00,52.5,39.9,30.09,North,354,0.0,0.0,62,0.00,,---,0.00,VWS V14.00,2013-10-27 01:55:00,
2013-10-26 20:57:00,52.5,39.9,30.09,North,354,0.0,0.0,62,0.00,,---,0.00,VWS V14.00,2013-10-27 01:57:00,
2013-10-26 20:58:00,52.3,39.7,30.09,North,354,0.0,0.0,62,0.00,,---,0.00,VWS V14.00,2013-10-27 01:58:00,
2013-10-26 20:59:00,52.5,39.9,30.09,North,354,0.0,0.0,62,0.00,,---,0.00,VWS V14.00,2013-10-27 01:59:00,
2013-10-26 21:00:00,52.5,39.9,30.09,North,354,0.0,0.0,62,0.00,,---,0.00,VWS V14.00,2013-10-27 02:00:00,
2013-10-26 21:02:00,52.3,39.7,30.09,North,354,0.0,0.0,62,0.00,,---,0.00,VWS V14.00,2013-10-27 02:02:00,
2013-10-26 21:03:00,52.3,41.3,30.09,North,354,0.0,0.0,66,0.00,,---,0.00,VWS V14.00,2013-10-27 02:03:00,
2013-10-26 21:04:00,52.3,41.7,30.09,North,354,0.0,0.0,67,0.00,,---,0.00,VWS V14.00,2013-10-27 02:04:00,
2013-10-26 21:05:00,52.3,41.7,30.09,North,354,0.0,0.0,67,0.00,,---,0.00,VWS V14.00,2013-10-27 02:05:00,
2013-10-26 21:06:00,52.2,41.6,30.09,North,354,0.0,0.0,67,0.00,,---,0.00,VWS V14.00,2013-10-27 02:06:00,
2013-10-26 21:07:00,52.2,41.6,30.09,North,354,0.0,0.0,67,0.00,,---,0.00,VWS V14.00,2013-10-27 02:07:00,
2013-10-26 21:08:00,52.0,41.4,30.09,North,354,0.0,0.0,67,0.00,,---,0.00,VWS V14.00,2013-10-27 02:08:00,
2013-10-26 21:09:00,51.9,41.3,30.09,North,354,0.0,0.0,67,0.00,,---,0.00,VWS V14.00,2013-10-27 02:09:00,
2013-10-26 21:10:00,51.7,41.1,30.09,North,354,0.0,0.0,67,0.00,,---,0.00,VWS V14.00,2013-10-27 02:10:00,
2013-10-26 21:11:00,51.6,41.0,30.09,North,354,0.0,0.0,67,0.00,,---,0.00,VWS V14.00,2013-10-27 02:11:00,
2013-10-26 21:13:00,51.4,40.8,30.09,North,354,0.0,0.0,67,0.00,,---,0.00,VWS V14.00,2013-10-27 02:13:00,
2013-10-26 21:14:00,51.4,40.8,30.04,North,354,0.0,0.0,67,0.00,,---,0.00,VWS V14.00,2013-10-27 02:14:00,
2013-10-26 21:15:00,51.4,41.2,30.04,North,354,0.0,0.0,68,0.00,,---,0.00,VWS V14.00,2013-10-27 02:15:00,
2013-10-26 21:16:00,51.6,41.4,30.04,North,354,0.0,0.0,68,0.00,,---,0.00,VWS V14.00,2013-10-27 02:16:00,
2013-10-26 21:18:00,51.7,41.5,30.04,North,354,0.0,0.0,68,0.00,,---,0.00,VWS V14.00,2013-10-27 02:18:00,
2013-10-26 21:20:00,51.7,41.1,30.04,North,354,0.0,0.0,67,0.00,,---,0.00,VWS V14.00,2013-10-27 02:20:00,
2013-10-26 21:21:00,51.7,41.1,30.04,North,354,0.0,0.0,67,0.00,,---,0.00,VWS V14.00,2013-10-27 02:21:00,
2013-10-26 21:23:00,51.7,41.1,30.04,North,354,0.0,0.0,67,0.00,,---,0.00,VWS V14.00,2013-10-27 02:23:00,
2013-10-26 21:25:00,51.7,41.5,30.04,North,354,0.0,0.0,68,0.00,,---,0.00,VWS V14.00,2013-10-27 02:25:00,
2013-10-26 21:26:00,51.7,41.1,30.04,North,354,0.0,0.0,67,0.00,,---,0.00,VWS V14.00,2013-10-27 02:26:00,
2013-10-26 21:29:00,51.7,41.5,30.04,North,354,0.0,0.0,68,0.00,,---,0.00,VWS V14.00,2013-10-27 02:29:00,
2013-10-26 21:30:00,51.7,41.5,30.04,North,354,0.0,0.0,68,0.00,,---,0.00,VWS V14.00,2013-10-27 02:30:00,
2013-10-26 21:32:00,51.7,41.5,30.04,North,354,0.0,0.0,68,0.00,,---,0.00,VWS V14.00,2013-10-27 02:32:00,
2013-10-26 21:34:00,51.7,41.1,30.04,North,354,0.0,0.0,67,0.00,,---,0.00,VWS V14.00,2013-10-27 02:34:00,
2013-10-26 21:35:00,51.6,40.6,30.04,North,354,0.0,0.0,66,0.00,,---,0.00,VWS V14.00,2013-10-27 02:35:00,
2013-10-26 21:36:00,51.4,40.4,30.04,North,354,0.0,0.0,66,0.00,,---,0.00,VWS V14.00,2013-10-27 02:36:00,
2013-10-26 21:37:00,51.4,40.8,30.04,North,354,0.0,0.0,67,0.00,,---,0.00,VWS V14.00,2013-10-27 02:37:00,
2013-10-26 21:39:00,51.4,40.8,30.04,North,354,0.0,0.0,67,0.00,,---,0.00,VWS V14.00,2013-10-27 02:39:00,
2013-10-26 21:41:00,51.4,40.8,30.04,North,354,0.0,0.0,67,0.00,,---,0.00,VWS V14.00,2013-10-27 02:41:00,
2013-10-26 21:43:00,51.4,40.8,30.04,North,354,0.0,0.0,67,0.00,,---,0.00,VWS V14.00,2013-10-27 02:43:00,
2013-10-26 21:44:00,51.3,40.3,30.05,North,354,0.0,0.0,66,0.00,,---,0.00,VWS V14.00,2013-10-27 02:44:00,
2013-10-26 21:46:00,51.1,40.2,30.05,North,354,0.0,0.0,66,0.00,,---,0.00,VWS V14.00,2013-10-27 02:46:00,
2013-10-26 21:47:00,51.1,40.5,30.05,North,354,0.0,0.0,67,0.00,,---,0.00,VWS V14.00,2013-10-27 02:47:00,
2013-10-26 21:48:00,51.1,40.5,30.05,North,354,0.0,0.0,67,0.00,,---,0.00,VWS V14.00,2013-10-27 02:48:00,
2013-10-26 21:49:00,51.0,40.4,30.05,North,354,0.0,0.0,67,0.00,,---,0.00,VWS V14.00,2013-10-27 02:49:00,
2013-10-26 21:50:00,51.0,40.4,30.05,North,354,0.0,0.0,67,0.00,,---,0.00,VWS V14.00,2013-10-27 02:50:00,
2013-10-26 21:51:00,51.0,40.4,30.05,North,354,0.0,0.0,67,0.00,,---,0.00,VWS V14.00,2013-10-27 02:51:00,
2013-10-26 21:52:00,50.8,40.2,30.05,North,354,0.0,0.0,67,0.00,,---,0.00,VWS V14.00,2013-10-27 02:52:00,
2013-10-26 21:53:00,50.8,40.2,30.05,North,354,0.0,0.0,67,0.00,,---,0.00,VWS V14.00,2013-10-27 02:53:00,
2013-10-26 21:54:00,50.8,40.2,30.05,North,354,0.0,0.0,67,0.00,,---,0.00,VWS V14.00,2013-10-27 02:54:00,
2013-10-26 21:55:00,50.8,40.2,30.05,North,354,0.0,0.0,67,0.00,,---,0.00,VWS V14.00,2013-10-27 02:55:00,
2013-10-26 21:57:00,50.7,40.2,30.05,North,354,0.0,0.0,67,0.00,,---,0.00,VWS V14.00,2013-10-27 02:57:00,
2013-10-26 21:58:00,50.7,40.2,30.05,North,354,0.0,0.0,67,0.00,,---,0.00,VWS V14.00,2013-10-27 02:58:00,
2013-10-26 22:00:00,50.7,40.2,30.06,North,354,0.0,0.0,67,0.00,,---,0.00,VWS V14.00,2013-10-27 03:00:00,
2013-10-26 22:02:00,50.5,40.0,30.06,North,354,0.0,0.0,67,0.00,,---,0.00,VWS V14.00,2013-10-27 03:02:00,
2013-10-26 22:03:00,50.5,40.0,30.06,North,354,0.0,0.0,67,0.00,,---,0.00,VWS V14.00,2013-10-27 03:03:00,
2013-10-26 22:05:00,50.4,39.9,30.06,North,354,0.0,0.0,67,0.00,,---,0.00,VWS V14.00,2013-10-27 03:05:00,
2013-10-26 22:07:00,50.2,39.7,30.06,North,354,0.0,0.0,67,0.00,,---,0.00,VWS V14.00,2013-10-27 03:07:00,
2013-10-26 22:08:00,50.1,39.6,30.06,North,354,0.0,0.0,67,0.00,,---,0.00,VWS V14.00,2013-10-27 03:08:00,
2013-10-26 22:10:00,49.9,39.4,30.06,North,354,0.0,0.0,67,0.00,,---,0.00,VWS V14.00,2013-10-27 03:10:00,
2013-10-26 22:12:00,49.9,39.4,30.06,North,354,0.0,0.0,67,0.00,,---,0.00,VWS V14.00,2013-10-27 03:12:00,
2013-10-26 22:13:00,49.6,38.7,30.06,North,354,0.0,0.0,66,0.00,,---,0.00,VWS V14.00,2013-10-27 03:13:00,
2013-10-26 22:14:00,49.6,39.1,30.02,North,354,0.0,0.0,67,0.00,,---,0.00,VWS V14.00,2013-10-27 03:14:00,
2013-10-26 22:15:00,49.6,39.1,30.02,North,354,0.0,0.0,67,0.00,,---,0.00,VWS V14.00,2013-10-27 03:15:00,
2013-10-26 22:16:00,49.5,39.0,30.02,North,354,0.0,0.0,67,0.00,,---,0.00,VWS V14.00,2013-10-27 03:16:00,
2013-10-26 22:17:00,49.5,39.0,30.02,North,354,0.0,0.0,67,0.00,,---,0.00,VWS V14.00,2013-10-27 03:17:00,
2013-10-26 22:18:00,49.5,39.0,30.02,North,354,0.0,0.0,67,0.00,,---,0.00,VWS V14.00,2013-10-27 03:18:00,
2013-10-26 22:19:00,49.5,39.0,30.02,North,354,0.0,0.0,67,0.00,,---,0.00,VWS V14.00,2013-10-27 03:19:00,
2013-10-26 22:20:00,49.5,39.4,30.02,North,354,0.0,0.0,68,0.00,,---,0.00,VWS V14.00,2013-10-27 03:20:00,
2013-10-26 22:21:00,49.5,39.4,30.02,North,354,0.0,0.0,68,0.00,,---,0.00,VWS V14.00,2013-10-27 03:21:00,
2013-10-26 22:22:00,49.6,39.1,30.02,North,354,0.0,0.0,67,0.00,,---,0.00,VWS V14.00,2013-10-27 03:22:00,
2013-10-26 22:23:00,49.6,39.1,30.02,North,354,0.0,0.0,67,0.00,,---,0.00,VWS V14.00,2013-10-27 03:23:00,
2013-10-26 22:24:00,49.6,39.1,30.02,North,354,0.0,0.0,67,0.00,,---,0.00,VWS V14.00,2013-10-27 03:24:00,
2013-10-26 22:25:00,49.6,39.1,30.02,North,354,0.0,0.0,67,0.00,,---,0.00,VWS V14.00,2013-10-27 03:25:00,
2013-10-26 22:26:00,49.5,39.0,30.02,North,354,0.0,0.0,67,0.00,,---,0.00,VWS V14.00,2013-10-27 03:26:00,
2013-10-26 22:28:00,49.4,38.9,30.02,North,354,0.0,0.0,67,0.00,,---,0.00,VWS V14.00,2013-10-27 03:28:00,
2013-10-26 22:29:00,49.4,38.9,30.03,North,354,0.0,0.0,67,0.00,,---,0.00,VWS V14.00,2013-10-27 03:29:00,
2013-10-26 22:30:00,49.4,38.9,30.03,North,354,0.0,0.0,67,0.00,,---,0.00,VWS V14.00,2013-10-27 03:30:00,
2013-10-26 22:31:00,49.4,38.9,30.03,North,354,0.0,0.0,67,0.00,,---,0.00,VWS V14.00,2013-10-27 03:31:00,
2013-10-26 22:33:00,49.5,38.2,30.03,North,354,0.0,0.0,65,0.00,,---,0.00,VWS V14.00,2013-10-27 03:33:00,
2013-10-26 22:34:00,49.5,38.2,30.03,North,354,0.0,0.0,65,0.00,,---,0.00,VWS V14.00,2013-10-27 03:34:00,
2013-10-26 22:35:00,49.5,38.2,30.03,North,354,0.0,0.0,65,0.00,,---,0.00,VWS V14.00,2013-10-27 03:35:00,
2013-10-26 22:36:00,49.5,38.6,30.03,North,354,0.0,0.0,66,0.00,,---,0.00,VWS V14.00,2013-10-27 03:36:00,
2013-10-26 22:39:00,49.5,38.6,30.03,North,354,0.0,0.0,66,0.00,,---,0.00,VWS V14.00,2013-10-27 03:39:00,
2013-10-26 22:40:00,49.6,38.3,30.03,North,354,0.0,0.0,65,0.00,,---,0.00,VWS V14.00,2013-10-27 03:40:00,
2013-10-26 22:41:00,49.6,38.3,30.03,North,354,0.0,0.0,65,0.00,,---,0.00,VWS V14.00,2013-10-27 03:41:00,
2013-10-26 22:44:00,49.8,38.5,30.02,North,354,0.0,0.0,65,0.00,,---,0.00,VWS V14.00,2013-10-27 03:44:00,
2013-10-26 22:45:00,49.8,38.5,30.02,North,354,0.0,0.0,65,0.00,,---,0.00,VWS V14.00,2013-10-27 03:45:00,